<?xml version="1.0" encoding="UTF-8" standalone="no" ?>
<gpx xmlns="http://www.topografix.com/GPX/1/1" xmlns:xsi="http://www.w3.org/2001/XMLSchema-instance" xsi:schemaLocation="http://www.topografix.com/GPX/1/1 http://www.topografix.com/GPX/1/1/gpx.xsd" version="1.1" creator="VisuGPX - https://www.visugpx.com">
  <metadata>
    <name>83-M-Taradeau</name>
    <desc><![CDATA[83-M-Taradeau : circuit touristique]]></desc>
  </metadata>
  <trk>
    <name><![CDATA[2013-03-13-taradeau]]></name>
    <trkseg>
      <trkpt lat="43.45965" lon="6.43122">
        <ele>205.738174</ele>
        <time>2013-03-13T12:55:12Z</time>
      </trkpt>
      <trkpt lat="43.45971" lon="6.4313">
        <ele>202.514068</ele>
        <time>2013-03-13T12:58:00Z</time>
      </trkpt>
      <trkpt lat="43.45972" lon="6.43131">
        <ele>202.649002</ele>
        <time>2013-03-13T12:58:01Z</time>
      </trkpt>
      <trkpt lat="43.45972" lon="6.43154">
        <ele>204.6</ele>
        <time>2013-03-13T12:58:22Z</time>
      </trkpt>
      <trkpt lat="43.45973" lon="6.43165">
        <ele>206.2</ele>
        <time>2013-03-13T12:58:32Z</time>
      </trkpt>
      <trkpt lat="43.45973" lon="6.43177">
        <ele>208.6</ele>
        <time>2013-03-13T12:58:42Z</time>
      </trkpt>
      <trkpt lat="43.45973" lon="6.43188">
        <ele>210.2</ele>
        <time>2013-03-13T12:58:51Z</time>
      </trkpt>
      <trkpt lat="43.45974" lon="6.432">
        <ele>211.4</ele>
        <time>2013-03-13T12:59:01Z</time>
      </trkpt>
      <trkpt lat="43.45974" lon="6.43201">
        <ele>211.5</ele>
        <time>2013-03-13T12:59:02Z</time>
      </trkpt>
      <trkpt lat="43.45975" lon="6.43224">
        <ele>215.6</ele>
        <time>2013-03-13T12:59:25Z</time>
      </trkpt>
      <trkpt lat="43.45976" lon="6.43236">
        <ele>216.4</ele>
        <time>2013-03-13T12:59:35Z</time>
      </trkpt>
      <trkpt lat="43.45977" lon="6.43247">
        <ele>218.4</ele>
        <time>2013-03-13T12:59:44Z</time>
      </trkpt>
      <trkpt lat="43.45979" lon="6.43258">
        <ele>220.2</ele>
        <time>2013-03-13T12:59:55Z</time>
      </trkpt>
      <trkpt lat="43.45983" lon="6.43268">
        <ele>220.7</ele>
        <time>2013-03-13T13:00:06Z</time>
      </trkpt>
      <trkpt lat="43.45984" lon="6.43269">
        <ele>221</ele>
        <time>2013-03-13T13:00:07Z</time>
      </trkpt>
      <trkpt lat="43.45992" lon="6.43288">
        <ele>223.5</ele>
        <time>2013-03-13T13:00:26Z</time>
      </trkpt>
      <trkpt lat="43.45994" lon="6.433">
        <ele>225.2</ele>
        <time>2013-03-13T13:00:36Z</time>
      </trkpt>
      <trkpt lat="43.45993" lon="6.43311">
        <ele>227.5</ele>
        <time>2013-03-13T13:00:45Z</time>
      </trkpt>
      <trkpt lat="43.4599" lon="6.43323">
        <ele>228.1</ele>
        <time>2013-03-13T13:00:54Z</time>
      </trkpt>
      <trkpt lat="43.45986" lon="6.43333">
        <ele>228.9</ele>
        <time>2013-03-13T13:01:03Z</time>
      </trkpt>
      <trkpt lat="43.45982" lon="6.43343">
        <ele>229</ele>
        <time>2013-03-13T13:01:11Z</time>
      </trkpt>
      <trkpt lat="43.45981" lon="6.43344">
        <ele>229.2</ele>
        <time>2013-03-13T13:01:12Z</time>
      </trkpt>
      <trkpt lat="43.45975" lon="6.43363">
        <ele>230.1</ele>
        <time>2013-03-13T13:01:27Z</time>
      </trkpt>
      <trkpt lat="43.45975" lon="6.43375">
        <ele>230.2</ele>
        <time>2013-03-13T13:01:36Z</time>
      </trkpt>
      <trkpt lat="43.45975" lon="6.43387">
        <ele>230.6</ele>
        <time>2013-03-13T13:01:44Z</time>
      </trkpt>
      <trkpt lat="43.45974" lon="6.43398">
        <ele>231.1</ele>
        <time>2013-03-13T13:01:52Z</time>
      </trkpt>
      <trkpt lat="43.45973" lon="6.4341">
        <ele>232.2</ele>
        <time>2013-03-13T13:02:00Z</time>
      </trkpt>
      <trkpt lat="43.45971" lon="6.43421">
        <ele>232.2</ele>
        <time>2013-03-13T13:02:08Z</time>
      </trkpt>
      <trkpt lat="43.45971" lon="6.43434">
        <ele>231.5</ele>
        <time>2013-03-13T13:02:16Z</time>
      </trkpt>
      <trkpt lat="43.45971" lon="6.43435">
        <ele>231.6</ele>
        <time>2013-03-13T13:02:17Z</time>
      </trkpt>
      <trkpt lat="43.45974" lon="6.43457">
        <ele>231.3</ele>
        <time>2013-03-13T13:02:31Z</time>
      </trkpt>
      <trkpt lat="43.45976" lon="6.43467">
        <ele>230.4</ele>
        <time>2013-03-13T13:02:37Z</time>
      </trkpt>
      <trkpt lat="43.45973" lon="6.43478">
        <ele>229.9</ele>
        <time>2013-03-13T13:02:44Z</time>
      </trkpt>
      <trkpt lat="43.45966" lon="6.43487">
        <ele>230.2</ele>
        <time>2013-03-13T13:02:52Z</time>
      </trkpt>
      <trkpt lat="43.4596" lon="6.43494">
        <ele>230.1</ele>
        <time>2013-03-13T13:02:59Z</time>
      </trkpt>
      <trkpt lat="43.45954" lon="6.43502">
        <ele>229.9</ele>
        <time>2013-03-13T13:03:06Z</time>
      </trkpt>
      <trkpt lat="43.45947" lon="6.43509">
        <ele>229.7</ele>
        <time>2013-03-13T13:03:13Z</time>
      </trkpt>
      <trkpt lat="43.45941" lon="6.43516">
        <ele>229.4</ele>
        <time>2013-03-13T13:03:20Z</time>
      </trkpt>
      <trkpt lat="43.4594" lon="6.43517">
        <ele>229.6</ele>
        <time>2013-03-13T13:03:21Z</time>
      </trkpt>
      <trkpt lat="43.45928" lon="6.43531">
        <ele>228.8</ele>
        <time>2013-03-13T13:03:33Z</time>
      </trkpt>
      <trkpt lat="43.45922" lon="6.43539">
        <ele>229</ele>
        <time>2013-03-13T13:03:39Z</time>
      </trkpt>
      <trkpt lat="43.45916" lon="6.43546">
        <ele>229.4</ele>
        <time>2013-03-13T13:03:45Z</time>
      </trkpt>
      <trkpt lat="43.45909" lon="6.43552">
        <ele>229.6</ele>
        <time>2013-03-13T13:03:51Z</time>
      </trkpt>
      <trkpt lat="43.45902" lon="6.43559">
        <ele>229.7</ele>
        <time>2013-03-13T13:03:58Z</time>
      </trkpt>
      <trkpt lat="43.45896" lon="6.43565">
        <ele>229.6</ele>
        <time>2013-03-13T13:04:04Z</time>
      </trkpt>
      <trkpt lat="43.45889" lon="6.43572">
        <ele>229.7</ele>
        <time>2013-03-13T13:04:11Z</time>
      </trkpt>
      <trkpt lat="43.45882" lon="6.43579">
        <ele>230.2</ele>
        <time>2013-03-13T13:04:19Z</time>
      </trkpt>
      <trkpt lat="43.45875" lon="6.43585">
        <ele>231.1</ele>
        <time>2013-03-13T13:04:26Z</time>
      </trkpt>
      <trkpt lat="43.45874" lon="6.43586">
        <ele>231.1</ele>
        <time>2013-03-13T13:04:27Z</time>
      </trkpt>
      <trkpt lat="43.45862" lon="6.43598">
        <ele>231.7</ele>
        <time>2013-03-13T13:04:41Z</time>
      </trkpt>
      <trkpt lat="43.45855" lon="6.43605">
        <ele>233.1</ele>
        <time>2013-03-13T13:04:49Z</time>
      </trkpt>
      <trkpt lat="43.45848" lon="6.43612">
        <ele>233.8</ele>
        <time>2013-03-13T13:04:57Z</time>
      </trkpt>
      <trkpt lat="43.45841" lon="6.43619">
        <ele>234.6</ele>
        <time>2013-03-13T13:05:05Z</time>
      </trkpt>
      <trkpt lat="43.45834" lon="6.43625">
        <ele>235</ele>
        <time>2013-03-13T13:05:13Z</time>
      </trkpt>
      <trkpt lat="43.45827" lon="6.43632">
        <ele>235.8</ele>
        <time>2013-03-13T13:05:21Z</time>
      </trkpt>
      <trkpt lat="43.4582" lon="6.43638">
        <ele>236.8</ele>
        <time>2013-03-13T13:05:29Z</time>
      </trkpt>
      <trkpt lat="43.45819" lon="6.43639">
        <ele>236.9</ele>
        <time>2013-03-13T13:05:30Z</time>
      </trkpt>
      <trkpt lat="43.45806" lon="6.43649">
        <ele>239.6</ele>
        <time>2013-03-13T13:05:45Z</time>
      </trkpt>
      <trkpt lat="43.45798" lon="6.43654">
        <ele>239.5</ele>
        <time>2013-03-13T13:05:53Z</time>
      </trkpt>
      <trkpt lat="43.4579" lon="6.43659">
        <ele>240.2</ele>
        <time>2013-03-13T13:06:01Z</time>
      </trkpt>
      <trkpt lat="43.45782" lon="6.43665">
        <ele>242.5</ele>
        <time>2013-03-13T13:06:09Z</time>
      </trkpt>
      <trkpt lat="43.45775" lon="6.4367">
        <ele>241.8</ele>
        <time>2013-03-13T13:06:17Z</time>
      </trkpt>
      <trkpt lat="43.45767" lon="6.43673">
        <ele>242.3</ele>
        <time>2013-03-13T13:06:24Z</time>
      </trkpt>
      <trkpt lat="43.45759" lon="6.43673">
        <ele>242.1</ele>
        <time>2013-03-13T13:06:31Z</time>
      </trkpt>
      <trkpt lat="43.45757" lon="6.43672">
        <ele>242.2</ele>
        <time>2013-03-13T13:06:32Z</time>
      </trkpt>
      <trkpt lat="43.45742" lon="6.43667">
        <ele>241.9</ele>
        <time>2013-03-13T13:06:46Z</time>
      </trkpt>
      <trkpt lat="43.45734" lon="6.43664">
        <ele>241.3</ele>
        <time>2013-03-13T13:06:53Z</time>
      </trkpt>
      <trkpt lat="43.45726" lon="6.43661">
        <ele>240.3</ele>
        <time>2013-03-13T13:07:00Z</time>
      </trkpt>
      <trkpt lat="43.45718" lon="6.43658">
        <ele>240.2</ele>
        <time>2013-03-13T13:07:07Z</time>
      </trkpt>
      <trkpt lat="43.45709" lon="6.43656">
        <ele>237.7</ele>
        <time>2013-03-13T13:07:15Z</time>
      </trkpt>
      <trkpt lat="43.45701" lon="6.43656">
        <ele>238</ele>
        <time>2013-03-13T13:07:22Z</time>
      </trkpt>
      <trkpt lat="43.45693" lon="6.43655">
        <ele>237.2</ele>
        <time>2013-03-13T13:07:29Z</time>
      </trkpt>
      <trkpt lat="43.45685" lon="6.43655">
        <ele>237.6</ele>
        <time>2013-03-13T13:07:35Z</time>
      </trkpt>
      <trkpt lat="43.45684" lon="6.43655">
        <ele>237.3</ele>
        <time>2013-03-13T13:07:36Z</time>
      </trkpt>
      <trkpt lat="43.45667" lon="6.43656">
        <ele>237.4</ele>
        <time>2013-03-13T13:07:49Z</time>
      </trkpt>
      <trkpt lat="43.45659" lon="6.43658">
        <ele>237.1</ele>
        <time>2013-03-13T13:07:56Z</time>
      </trkpt>
      <trkpt lat="43.45651" lon="6.43661">
        <ele>236.9</ele>
        <time>2013-03-13T13:08:04Z</time>
      </trkpt>
      <trkpt lat="43.45643" lon="6.43666">
        <ele>235.7</ele>
        <time>2013-03-13T13:08:12Z</time>
      </trkpt>
      <trkpt lat="43.45635" lon="6.43669">
        <ele>237.2</ele>
        <time>2013-03-13T13:08:22Z</time>
      </trkpt>
      <trkpt lat="43.45628" lon="6.43675">
        <ele>236.3</ele>
        <time>2013-03-13T13:08:28Z</time>
      </trkpt>
      <trkpt lat="43.45621" lon="6.43679">
        <ele>236.9</ele>
        <time>2013-03-13T13:08:34Z</time>
      </trkpt>
      <trkpt lat="43.45613" lon="6.43684">
        <ele>237</ele>
        <time>2013-03-13T13:08:41Z</time>
      </trkpt>
      <trkpt lat="43.45611" lon="6.43685">
        <ele>237.1</ele>
        <time>2013-03-13T13:08:42Z</time>
      </trkpt>
      <trkpt lat="43.45597" lon="6.43694">
        <ele>237.9</ele>
        <time>2013-03-13T13:08:55Z</time>
      </trkpt>
      <trkpt lat="43.45589" lon="6.43699">
        <ele>238.8</ele>
        <time>2013-03-13T13:09:02Z</time>
      </trkpt>
      <trkpt lat="43.45581" lon="6.437">
        <ele>238.9</ele>
        <time>2013-03-13T13:09:10Z</time>
      </trkpt>
      <trkpt lat="43.45573" lon="6.43701">
        <ele>240</ele>
        <time>2013-03-13T13:09:18Z</time>
      </trkpt>
      <trkpt lat="43.45564" lon="6.43702">
        <ele>240.8</ele>
        <time>2013-03-13T13:09:26Z</time>
      </trkpt>
      <trkpt lat="43.45556" lon="6.43704">
        <ele>242.4</ele>
        <time>2013-03-13T13:09:35Z</time>
      </trkpt>
      <trkpt lat="43.45552" lon="6.43693">
        <ele>243.7</ele>
        <time>2013-03-13T13:16:21Z</time>
      </trkpt>
      <trkpt lat="43.45552" lon="6.43692">
        <ele>243.7</ele>
        <time>2013-03-13T13:16:22Z</time>
      </trkpt>
      <trkpt lat="43.45558" lon="6.43702">
        <ele>243.7</ele>
        <time>2013-03-13T13:17:30Z</time>
      </trkpt>
      <trkpt lat="43.45575" lon="6.437">
        <ele>242.3</ele>
        <time>2013-03-13T13:17:58Z</time>
      </trkpt>
      <trkpt lat="43.4558" lon="6.4369">
        <ele>241.7</ele>
        <time>2013-03-13T13:18:17Z</time>
      </trkpt>
      <trkpt lat="43.45582" lon="6.43679">
        <ele>240.9</ele>
        <time>2013-03-13T13:18:35Z</time>
      </trkpt>
      <trkpt lat="43.45582" lon="6.43678">
        <ele>240.7</ele>
        <time>2013-03-13T13:18:36Z</time>
      </trkpt>
      <trkpt lat="43.45587" lon="6.43656">
        <ele>240.1</ele>
        <time>2013-03-13T13:18:59Z</time>
      </trkpt>
      <trkpt lat="43.45587" lon="6.43644">
        <ele>239.2</ele>
        <time>2013-03-13T13:19:14Z</time>
      </trkpt>
      <trkpt lat="43.45589" lon="6.43633">
        <ele>236.9</ele>
        <time>2013-03-13T13:19:29Z</time>
      </trkpt>
      <trkpt lat="43.45591" lon="6.43621">
        <ele>236.1</ele>
        <time>2013-03-13T13:19:44Z</time>
      </trkpt>
      <trkpt lat="43.45591" lon="6.4362">
        <ele>236.1</ele>
        <time>2013-03-13T13:19:45Z</time>
      </trkpt>
      <trkpt lat="43.45584" lon="6.43598">
        <ele>234.7</ele>
        <time>2013-03-13T13:20:48Z</time>
      </trkpt>
      <trkpt lat="43.45584" lon="6.43598">
        <ele>234</ele>
        <time>2013-03-13T13:20:49Z</time>
      </trkpt>
      <trkpt lat="43.45571" lon="6.43582">
        <ele>233.6</ele>
        <time>2013-03-13T13:21:12Z</time>
      </trkpt>
      <trkpt lat="43.45564" lon="6.43576">
        <ele>234.3</ele>
        <time>2013-03-13T13:21:35Z</time>
      </trkpt>
      <trkpt lat="43.45557" lon="6.43571">
        <ele>234.2</ele>
        <time>2013-03-13T13:21:44Z</time>
      </trkpt>
      <trkpt lat="43.45549" lon="6.43564">
        <ele>232.9</ele>
        <time>2013-03-13T13:21:52Z</time>
      </trkpt>
      <trkpt lat="43.45549" lon="6.43563">
        <ele>232.8</ele>
        <time>2013-03-13T13:21:53Z</time>
      </trkpt>
      <trkpt lat="43.45534" lon="6.43559">
        <ele>232.1</ele>
        <time>2013-03-13T13:22:09Z</time>
      </trkpt>
      <trkpt lat="43.45526" lon="6.43559">
        <ele>232.5</ele>
        <time>2013-03-13T13:22:16Z</time>
      </trkpt>
      <trkpt lat="43.45517" lon="6.43559">
        <ele>232.6</ele>
        <time>2013-03-13T13:22:24Z</time>
      </trkpt>
      <trkpt lat="43.45509" lon="6.43558">
        <ele>230.9</ele>
        <time>2013-03-13T13:22:33Z</time>
      </trkpt>
      <trkpt lat="43.455" lon="6.43558">
        <ele>230.9</ele>
        <time>2013-03-13T13:22:42Z</time>
      </trkpt>
      <trkpt lat="43.45493" lon="6.43565">
        <ele>229.3</ele>
        <time>2013-03-13T13:23:24Z</time>
      </trkpt>
      <trkpt lat="43.45493" lon="6.43566">
        <ele>228.8</ele>
        <time>2013-03-13T13:23:25Z</time>
      </trkpt>
      <trkpt lat="43.45489" lon="6.43588">
        <ele>231.6</ele>
        <time>2013-03-13T13:23:43Z</time>
      </trkpt>
      <trkpt lat="43.45486" lon="6.43599">
        <ele>233</ele>
        <time>2013-03-13T13:23:54Z</time>
      </trkpt>
      <trkpt lat="43.45485" lon="6.43611">
        <ele>234.4</ele>
        <time>2013-03-13T13:24:07Z</time>
      </trkpt>
      <trkpt lat="43.45482" lon="6.43622">
        <ele>233.3</ele>
        <time>2013-03-13T13:24:34Z</time>
      </trkpt>
      <trkpt lat="43.45482" lon="6.43624">
        <ele>233.2</ele>
        <time>2013-03-13T13:24:35Z</time>
      </trkpt>
      <trkpt lat="43.45479" lon="6.43645">
        <ele>235.7</ele>
        <time>2013-03-13T13:25:37Z</time>
      </trkpt>
      <trkpt lat="43.45479" lon="6.43647">
        <ele>235.8</ele>
        <time>2013-03-13T13:25:38Z</time>
      </trkpt>
      <trkpt lat="43.45483" lon="6.43664">
        <ele>236.6</ele>
        <time>2013-03-13T13:26:01Z</time>
      </trkpt>
      <trkpt lat="43.45488" lon="6.43673">
        <ele>239.3</ele>
        <time>2013-03-13T13:26:12Z</time>
      </trkpt>
      <trkpt lat="43.45491" lon="6.43685">
        <ele>239</ele>
        <time>2013-03-13T13:26:23Z</time>
      </trkpt>
      <trkpt lat="43.45492" lon="6.43697">
        <ele>241.8</ele>
        <time>2013-03-13T13:26:35Z</time>
      </trkpt>
      <trkpt lat="43.45495" lon="6.43707">
        <ele>242.4</ele>
        <time>2013-03-13T13:26:45Z</time>
      </trkpt>
      <trkpt lat="43.45495" lon="6.43708">
        <ele>242.2</ele>
        <time>2013-03-13T13:26:46Z</time>
      </trkpt>
      <trkpt lat="43.45502" lon="6.43729">
        <ele>244</ele>
        <time>2013-03-13T13:27:07Z</time>
      </trkpt>
      <trkpt lat="43.45507" lon="6.43738">
        <ele>246.8</ele>
        <time>2013-03-13T13:27:16Z</time>
      </trkpt>
      <trkpt lat="43.45507" lon="6.43749">
        <ele>246.4</ele>
        <time>2013-03-13T13:27:24Z</time>
      </trkpt>
      <trkpt lat="43.45505" lon="6.43761">
        <ele>246.9</ele>
        <time>2013-03-13T13:27:33Z</time>
      </trkpt>
      <trkpt lat="43.45501" lon="6.43772">
        <ele>246.8</ele>
        <time>2013-03-13T13:27:44Z</time>
      </trkpt>
      <trkpt lat="43.455" lon="6.43783">
        <ele>247.8</ele>
        <time>2013-03-13T13:27:53Z</time>
      </trkpt>
      <trkpt lat="43.455" lon="6.43785">
        <ele>247.3</ele>
        <time>2013-03-13T13:27:54Z</time>
      </trkpt>
      <trkpt lat="43.45494" lon="6.43805">
        <ele>247.9</ele>
        <time>2013-03-13T13:28:11Z</time>
      </trkpt>
      <trkpt lat="43.45491" lon="6.43817">
        <ele>246.5</ele>
        <time>2013-03-13T13:28:21Z</time>
      </trkpt>
      <trkpt lat="43.45486" lon="6.43826">
        <ele>246.5</ele>
        <time>2013-03-13T13:28:48Z</time>
      </trkpt>
      <trkpt lat="43.45492" lon="6.43818">
        <ele>247.1</ele>
        <time>2013-03-13T13:34:56Z</time>
      </trkpt>
      <trkpt lat="43.45492" lon="6.43817">
        <ele>247.2</ele>
        <time>2013-03-13T13:34:57Z</time>
      </trkpt>
      <trkpt lat="43.45499" lon="6.43797">
        <ele>248.6</ele>
        <time>2013-03-13T13:35:17Z</time>
      </trkpt>
      <trkpt lat="43.45504" lon="6.43787">
        <ele>248.7</ele>
        <time>2013-03-13T13:35:27Z</time>
      </trkpt>
      <trkpt lat="43.45509" lon="6.43778">
        <ele>248.1</ele>
        <time>2013-03-13T13:35:38Z</time>
      </trkpt>
      <trkpt lat="43.45515" lon="6.43768">
        <ele>247.6</ele>
        <time>2013-03-13T13:35:49Z</time>
      </trkpt>
      <trkpt lat="43.45521" lon="6.43761">
        <ele>247.1</ele>
        <time>2013-03-13T13:35:59Z</time>
      </trkpt>
      <trkpt lat="43.45522" lon="6.43761">
        <ele>246.6</ele>
        <time>2013-03-13T13:36:00Z</time>
      </trkpt>
      <trkpt lat="43.45537" lon="6.43753">
        <ele>244.2</ele>
        <time>2013-03-13T13:36:18Z</time>
      </trkpt>
      <trkpt lat="43.45545" lon="6.43747">
        <ele>243.4</ele>
        <time>2013-03-13T13:36:28Z</time>
      </trkpt>
      <trkpt lat="43.45553" lon="6.43742">
        <ele>242.6</ele>
        <time>2013-03-13T13:36:38Z</time>
      </trkpt>
      <trkpt lat="43.45562" lon="6.43738">
        <ele>242.2</ele>
        <time>2013-03-13T13:36:48Z</time>
      </trkpt>
      <trkpt lat="43.4557" lon="6.43735">
        <ele>240.9</ele>
        <time>2013-03-13T13:36:57Z</time>
      </trkpt>
      <trkpt lat="43.45578" lon="6.43733">
        <ele>239.3</ele>
        <time>2013-03-13T13:37:06Z</time>
      </trkpt>
      <trkpt lat="43.45579" lon="6.43732">
        <ele>239.5</ele>
        <time>2013-03-13T13:37:07Z</time>
      </trkpt>
      <trkpt lat="43.45595" lon="6.43728">
        <ele>237.7</ele>
        <time>2013-03-13T13:37:26Z</time>
      </trkpt>
      <trkpt lat="43.45603" lon="6.43726">
        <ele>235.1</ele>
        <time>2013-03-13T13:37:35Z</time>
      </trkpt>
      <trkpt lat="43.45611" lon="6.43724">
        <ele>234</ele>
        <time>2013-03-13T13:37:44Z</time>
      </trkpt>
      <trkpt lat="43.4562" lon="6.43723">
        <ele>232.9</ele>
        <time>2013-03-13T13:37:53Z</time>
      </trkpt>
      <trkpt lat="43.45628" lon="6.43723">
        <ele>231.2</ele>
        <time>2013-03-13T13:38:02Z</time>
      </trkpt>
      <trkpt lat="43.45637" lon="6.43724">
        <ele>231</ele>
        <time>2013-03-13T13:38:12Z</time>
      </trkpt>
      <trkpt lat="43.45637" lon="6.43724">
        <ele>231</ele>
        <time>2013-03-13T13:38:13Z</time>
      </trkpt>
      <trkpt lat="43.45652" lon="6.43728">
        <ele>229.8</ele>
        <time>2013-03-13T13:38:29Z</time>
      </trkpt>
      <trkpt lat="43.45661" lon="6.43732">
        <ele>227.9</ele>
        <time>2013-03-13T13:38:38Z</time>
      </trkpt>
      <trkpt lat="43.45668" lon="6.43736">
        <ele>226.7</ele>
        <time>2013-03-13T13:38:47Z</time>
      </trkpt>
      <trkpt lat="43.45676" lon="6.43741">
        <ele>225.2</ele>
        <time>2013-03-13T13:38:57Z</time>
      </trkpt>
      <trkpt lat="43.45683" lon="6.43748">
        <ele>224.5</ele>
        <time>2013-03-13T13:39:07Z</time>
      </trkpt>
      <trkpt lat="43.45689" lon="6.43756">
        <ele>222.8</ele>
        <time>2013-03-13T13:39:18Z</time>
      </trkpt>
      <trkpt lat="43.4569" lon="6.43757">
        <ele>222</ele>
        <time>2013-03-13T13:39:19Z</time>
      </trkpt>
      <trkpt lat="43.45701" lon="6.43775">
        <ele>220.3</ele>
        <time>2013-03-13T13:39:37Z</time>
      </trkpt>
      <trkpt lat="43.45706" lon="6.43785">
        <ele>220.2</ele>
        <time>2013-03-13T13:39:46Z</time>
      </trkpt>
      <trkpt lat="43.45711" lon="6.43794">
        <ele>218.4</ele>
        <time>2013-03-13T13:39:54Z</time>
      </trkpt>
      <trkpt lat="43.45716" lon="6.43803">
        <ele>216.6</ele>
        <time>2013-03-13T13:40:03Z</time>
      </trkpt>
      <trkpt lat="43.45722" lon="6.43812">
        <ele>214.6</ele>
        <time>2013-03-13T13:40:12Z</time>
      </trkpt>
      <trkpt lat="43.45726" lon="6.43821">
        <ele>214.9</ele>
        <time>2013-03-13T13:40:20Z</time>
      </trkpt>
      <trkpt lat="43.45726" lon="6.43823">
        <ele>214.3</ele>
        <time>2013-03-13T13:40:21Z</time>
      </trkpt>
      <trkpt lat="43.45734" lon="6.43842">
        <ele>211.7</ele>
        <time>2013-03-13T13:40:36Z</time>
      </trkpt>
      <trkpt lat="43.45737" lon="6.43853">
        <ele>212</ele>
        <time>2013-03-13T13:40:45Z</time>
      </trkpt>
      <trkpt lat="43.4574" lon="6.43864">
        <ele>210.4</ele>
        <time>2013-03-13T13:40:53Z</time>
      </trkpt>
      <trkpt lat="43.45742" lon="6.43874">
        <ele>210.3</ele>
        <time>2013-03-13T13:41:01Z</time>
      </trkpt>
      <trkpt lat="43.45745" lon="6.43884">
        <ele>209.3</ele>
        <time>2013-03-13T13:41:09Z</time>
      </trkpt>
      <trkpt lat="43.45747" lon="6.43896">
        <ele>208.7</ele>
        <time>2013-03-13T13:41:18Z</time>
      </trkpt>
      <trkpt lat="43.45748" lon="6.43908">
        <ele>207.9</ele>
        <time>2013-03-13T13:41:27Z</time>
      </trkpt>
      <trkpt lat="43.45749" lon="6.43909">
        <ele>207.5</ele>
        <time>2013-03-13T13:41:28Z</time>
      </trkpt>
      <trkpt lat="43.45751" lon="6.43931">
        <ele>205.6</ele>
        <time>2013-03-13T13:41:46Z</time>
      </trkpt>
      <trkpt lat="43.4575" lon="6.43944">
        <ele>204.9</ele>
        <time>2013-03-13T13:41:55Z</time>
      </trkpt>
      <trkpt lat="43.45748" lon="6.43955">
        <ele>204</ele>
        <time>2013-03-13T13:42:03Z</time>
      </trkpt>
      <trkpt lat="43.45746" lon="6.43967">
        <ele>202.9</ele>
        <time>2013-03-13T13:42:12Z</time>
      </trkpt>
      <trkpt lat="43.45745" lon="6.43979">
        <ele>201</ele>
        <time>2013-03-13T13:42:21Z</time>
      </trkpt>
      <trkpt lat="43.45745" lon="6.4399">
        <ele>200.9</ele>
        <time>2013-03-13T13:42:30Z</time>
      </trkpt>
      <trkpt lat="43.45745" lon="6.43991">
        <ele>200.9</ele>
        <time>2013-03-13T13:42:31Z</time>
      </trkpt>
      <trkpt lat="43.45746" lon="6.44013">
        <ele>198</ele>
        <time>2013-03-13T13:42:47Z</time>
      </trkpt>
      <trkpt lat="43.45749" lon="6.44025">
        <ele>198</ele>
        <time>2013-03-13T13:42:56Z</time>
      </trkpt>
      <trkpt lat="43.45752" lon="6.44035">
        <ele>196.1</ele>
        <time>2013-03-13T13:43:04Z</time>
      </trkpt>
      <trkpt lat="43.45755" lon="6.44046">
        <ele>195.7</ele>
        <time>2013-03-13T13:43:12Z</time>
      </trkpt>
      <trkpt lat="43.45759" lon="6.44056">
        <ele>194.2</ele>
        <time>2013-03-13T13:43:20Z</time>
      </trkpt>
      <trkpt lat="43.45764" lon="6.44066">
        <ele>193.3</ele>
        <time>2013-03-13T13:43:28Z</time>
      </trkpt>
      <trkpt lat="43.45768" lon="6.44075">
        <ele>192.9</ele>
        <time>2013-03-13T13:43:36Z</time>
      </trkpt>
      <trkpt lat="43.45769" lon="6.44076">
        <ele>192.9</ele>
        <time>2013-03-13T13:43:37Z</time>
      </trkpt>
      <trkpt lat="43.4578" lon="6.44091">
        <ele>190.8</ele>
        <time>2013-03-13T13:43:53Z</time>
      </trkpt>
      <trkpt lat="43.45788" lon="6.44094">
        <ele>189.1</ele>
        <time>2013-03-13T13:44:02Z</time>
      </trkpt>
      <trkpt lat="43.45797" lon="6.44092">
        <ele>188.5</ele>
        <time>2013-03-13T13:44:11Z</time>
      </trkpt>
      <trkpt lat="43.45806" lon="6.44091">
        <ele>188.6</ele>
        <time>2013-03-13T13:44:19Z</time>
      </trkpt>
      <trkpt lat="43.45814" lon="6.44091">
        <ele>186.6</ele>
        <time>2013-03-13T13:44:27Z</time>
      </trkpt>
      <trkpt lat="43.45822" lon="6.44091">
        <ele>185.6</ele>
        <time>2013-03-13T13:44:35Z</time>
      </trkpt>
      <trkpt lat="43.45831" lon="6.44092">
        <ele>184.7</ele>
        <time>2013-03-13T13:44:44Z</time>
      </trkpt>
      <trkpt lat="43.45831" lon="6.44092">
        <ele>184.6</ele>
        <time>2013-03-13T13:44:45Z</time>
      </trkpt>
      <trkpt lat="43.45848" lon="6.44094">
        <ele>181.3</ele>
        <time>2013-03-13T13:45:03Z</time>
      </trkpt>
      <trkpt lat="43.45856" lon="6.4409">
        <ele>180.8</ele>
        <time>2013-03-13T13:45:12Z</time>
      </trkpt>
      <trkpt lat="43.45865" lon="6.44089">
        <ele>179.5</ele>
        <time>2013-03-13T13:45:21Z</time>
      </trkpt>
      <trkpt lat="43.45872" lon="6.44087">
        <ele>178.8</ele>
        <time>2013-03-13T13:45:28Z</time>
      </trkpt>
      <trkpt lat="43.45881" lon="6.44082">
        <ele>178</ele>
        <time>2013-03-13T13:45:36Z</time>
      </trkpt>
      <trkpt lat="43.45889" lon="6.44079">
        <ele>175.8</ele>
        <time>2013-03-13T13:45:45Z</time>
      </trkpt>
      <trkpt lat="43.4589" lon="6.44079">
        <ele>175.9</ele>
        <time>2013-03-13T13:45:46Z</time>
      </trkpt>
      <trkpt lat="43.45905" lon="6.44072">
        <ele>175.6</ele>
        <time>2013-03-13T13:46:04Z</time>
      </trkpt>
      <trkpt lat="43.45913" lon="6.44069">
        <ele>175</ele>
        <time>2013-03-13T13:46:12Z</time>
      </trkpt>
      <trkpt lat="43.4592" lon="6.44063">
        <ele>173.8</ele>
        <time>2013-03-13T13:46:20Z</time>
      </trkpt>
      <trkpt lat="43.45926" lon="6.44057">
        <ele>173.1</ele>
        <time>2013-03-13T13:46:27Z</time>
      </trkpt>
      <trkpt lat="43.45933" lon="6.44049">
        <ele>173.1</ele>
        <time>2013-03-13T13:46:33Z</time>
      </trkpt>
      <trkpt lat="43.4594" lon="6.44043">
        <ele>173.9</ele>
        <time>2013-03-13T13:46:39Z</time>
      </trkpt>
      <trkpt lat="43.45947" lon="6.44037">
        <ele>172.6</ele>
        <time>2013-03-13T13:46:46Z</time>
      </trkpt>
      <trkpt lat="43.45948" lon="6.44036">
        <ele>172.6</ele>
        <time>2013-03-13T13:46:47Z</time>
      </trkpt>
      <trkpt lat="43.45961" lon="6.44024">
        <ele>172.3</ele>
        <time>2013-03-13T13:47:30Z</time>
      </trkpt>
      <trkpt lat="43.45962" lon="6.44012">
        <ele>172.8</ele>
        <time>2013-03-13T13:49:50Z</time>
      </trkpt>
      <trkpt lat="43.45963" lon="6.44011">
        <ele>173.3</ele>
        <time>2013-03-13T13:49:51Z</time>
      </trkpt>
      <trkpt lat="43.45973" lon="6.43994">
        <ele>174.9</ele>
        <time>2013-03-13T13:50:12Z</time>
      </trkpt>
      <trkpt lat="43.45977" lon="6.43984">
        <ele>175.1</ele>
        <time>2013-03-13T13:50:21Z</time>
      </trkpt>
      <trkpt lat="43.45981" lon="6.43973">
        <ele>176.5</ele>
        <time>2013-03-13T13:50:30Z</time>
      </trkpt>
      <trkpt lat="43.45985" lon="6.43962">
        <ele>176.4</ele>
        <time>2013-03-13T13:50:39Z</time>
      </trkpt>
      <trkpt lat="43.45987" lon="6.43951">
        <ele>177.7</ele>
        <time>2013-03-13T13:50:48Z</time>
      </trkpt>
      <trkpt lat="43.45988" lon="6.4394">
        <ele>177.9</ele>
        <time>2013-03-13T13:50:56Z</time>
      </trkpt>
      <trkpt lat="43.45989" lon="6.43939">
        <ele>177.9</ele>
        <time>2013-03-13T13:50:57Z</time>
      </trkpt>
      <trkpt lat="43.45991" lon="6.43917">
        <ele>178.6</ele>
        <time>2013-03-13T13:51:13Z</time>
      </trkpt>
      <trkpt lat="43.45997" lon="6.43908">
        <ele>178.7</ele>
        <time>2013-03-13T13:51:22Z</time>
      </trkpt>
      <trkpt lat="43.46003" lon="6.43902">
        <ele>180</ele>
        <time>2013-03-13T13:51:30Z</time>
      </trkpt>
      <trkpt lat="43.46011" lon="6.43897">
        <ele>181.2</ele>
        <time>2013-03-13T13:51:38Z</time>
      </trkpt>
      <trkpt lat="43.46018" lon="6.4389">
        <ele>183.8</ele>
        <time>2013-03-13T13:51:48Z</time>
      </trkpt>
      <trkpt lat="43.46024" lon="6.43882">
        <ele>183.8</ele>
        <time>2013-03-13T13:51:57Z</time>
      </trkpt>
      <trkpt lat="43.46025" lon="6.43881">
        <ele>183.9</ele>
        <time>2013-03-13T13:51:58Z</time>
      </trkpt>
      <trkpt lat="43.46036" lon="6.43865">
        <ele>185.8</ele>
        <time>2013-03-13T13:52:13Z</time>
      </trkpt>
      <trkpt lat="43.46042" lon="6.43855">
        <ele>187.4</ele>
        <time>2013-03-13T13:52:21Z</time>
      </trkpt>
      <trkpt lat="43.46048" lon="6.43847">
        <ele>186.9</ele>
        <time>2013-03-13T13:52:30Z</time>
      </trkpt>
      <trkpt lat="43.46053" lon="6.43839">
        <ele>187.7</ele>
        <time>2013-03-13T13:52:39Z</time>
      </trkpt>
      <trkpt lat="43.46058" lon="6.43829">
        <ele>188.1</ele>
        <time>2013-03-13T13:52:46Z</time>
      </trkpt>
      <trkpt lat="43.46063" lon="6.43819">
        <ele>189.3</ele>
        <time>2013-03-13T13:52:54Z</time>
      </trkpt>
      <trkpt lat="43.46068" lon="6.4381">
        <ele>189.8</ele>
        <time>2013-03-13T13:53:04Z</time>
      </trkpt>
      <trkpt lat="43.46068" lon="6.43809">
        <ele>189.5</ele>
        <time>2013-03-13T13:53:05Z</time>
      </trkpt>
      <trkpt lat="43.46076" lon="6.43788">
        <ele>190.8</ele>
        <time>2013-03-13T13:53:22Z</time>
      </trkpt>
      <trkpt lat="43.46081" lon="6.43779">
        <ele>191.7</ele>
        <time>2013-03-13T13:53:30Z</time>
      </trkpt>
      <trkpt lat="43.46086" lon="6.4377">
        <ele>192.3</ele>
        <time>2013-03-13T13:53:38Z</time>
      </trkpt>
      <trkpt lat="43.46092" lon="6.4376">
        <ele>192.3</ele>
        <time>2013-03-13T13:53:45Z</time>
      </trkpt>
      <trkpt lat="43.46098" lon="6.43753">
        <ele>192.4</ele>
        <time>2013-03-13T13:53:53Z</time>
      </trkpt>
      <trkpt lat="43.46105" lon="6.43748">
        <ele>194.5</ele>
        <time>2013-03-13T13:54:01Z</time>
      </trkpt>
      <trkpt lat="43.46112" lon="6.43742">
        <ele>195.9</ele>
        <time>2013-03-13T13:54:10Z</time>
      </trkpt>
      <trkpt lat="43.46113" lon="6.43741">
        <ele>195.4</ele>
        <time>2013-03-13T13:54:11Z</time>
      </trkpt>
      <trkpt lat="43.46127" lon="6.43735">
        <ele>195.4</ele>
        <time>2013-03-13T13:54:27Z</time>
      </trkpt>
      <trkpt lat="43.46134" lon="6.43742">
        <ele>194.5</ele>
        <time>2013-03-13T13:54:35Z</time>
      </trkpt>
      <trkpt lat="43.46141" lon="6.43748">
        <ele>196.6</ele>
        <time>2013-03-13T13:54:43Z</time>
      </trkpt>
      <trkpt lat="43.46148" lon="6.43754">
        <ele>197.8</ele>
        <time>2013-03-13T13:54:51Z</time>
      </trkpt>
      <trkpt lat="43.46155" lon="6.43761">
        <ele>197.5</ele>
        <time>2013-03-13T13:55:00Z</time>
      </trkpt>
      <trkpt lat="43.46161" lon="6.43769">
        <ele>198.3</ele>
        <time>2013-03-13T13:55:08Z</time>
      </trkpt>
      <trkpt lat="43.46166" lon="6.43778">
        <ele>198</ele>
        <time>2013-03-13T13:55:17Z</time>
      </trkpt>
      <trkpt lat="43.46167" lon="6.43779">
        <ele>198</ele>
        <time>2013-03-13T13:55:18Z</time>
      </trkpt>
      <trkpt lat="43.46183" lon="6.43782">
        <ele>200.2</ele>
        <time>2013-03-13T13:55:37Z</time>
      </trkpt>
      <trkpt lat="43.46191" lon="6.43781">
        <ele>201.5</ele>
        <time>2013-03-13T13:55:47Z</time>
      </trkpt>
      <trkpt lat="43.462" lon="6.43777">
        <ele>202.5</ele>
        <time>2013-03-13T13:56:00Z</time>
      </trkpt>
      <trkpt lat="43.46205" lon="6.43768">
        <ele>201.6</ele>
        <time>2013-03-13T13:56:10Z</time>
      </trkpt>
      <trkpt lat="43.46209" lon="6.43759">
        <ele>202.1</ele>
        <time>2013-03-13T13:56:17Z</time>
      </trkpt>
      <trkpt lat="43.46215" lon="6.43751">
        <ele>201.5</ele>
        <time>2013-03-13T13:56:24Z</time>
      </trkpt>
      <trkpt lat="43.46216" lon="6.4375">
        <ele>201.2</ele>
        <time>2013-03-13T13:56:25Z</time>
      </trkpt>
      <trkpt lat="43.46225" lon="6.43733">
        <ele>201.3</ele>
        <time>2013-03-13T13:56:40Z</time>
      </trkpt>
      <trkpt lat="43.46229" lon="6.43723">
        <ele>201.1</ele>
        <time>2013-03-13T13:56:48Z</time>
      </trkpt>
      <trkpt lat="43.46233" lon="6.43713">
        <ele>200.5</ele>
        <time>2013-03-13T13:56:55Z</time>
      </trkpt>
      <trkpt lat="43.46238" lon="6.43703">
        <ele>200.5</ele>
        <time>2013-03-13T13:57:02Z</time>
      </trkpt>
      <trkpt lat="43.46241" lon="6.43694">
        <ele>200.7</ele>
        <time>2013-03-13T13:57:09Z</time>
      </trkpt>
      <trkpt lat="43.46246" lon="6.43684">
        <ele>201.5</ele>
        <time>2013-03-13T13:57:16Z</time>
      </trkpt>
      <trkpt lat="43.46251" lon="6.43675">
        <ele>201.8</ele>
        <time>2013-03-13T13:57:23Z</time>
      </trkpt>
      <trkpt lat="43.46255" lon="6.43665">
        <ele>202.7</ele>
        <time>2013-03-13T13:57:30Z</time>
      </trkpt>
      <trkpt lat="43.46255" lon="6.43663">
        <ele>202.5</ele>
        <time>2013-03-13T13:57:31Z</time>
      </trkpt>
      <trkpt lat="43.46263" lon="6.43645">
        <ele>202</ele>
        <time>2013-03-13T13:57:44Z</time>
      </trkpt>
      <trkpt lat="43.46268" lon="6.43635">
        <ele>202.2</ele>
        <time>2013-03-13T13:57:51Z</time>
      </trkpt>
      <trkpt lat="43.46273" lon="6.43626">
        <ele>202.2</ele>
        <time>2013-03-13T13:57:58Z</time>
      </trkpt>
      <trkpt lat="43.46278" lon="6.43617">
        <ele>203</ele>
        <time>2013-03-13T13:58:05Z</time>
      </trkpt>
      <trkpt lat="43.46283" lon="6.43607">
        <ele>203.1</ele>
        <time>2013-03-13T13:58:12Z</time>
      </trkpt>
      <trkpt lat="43.46289" lon="6.43598">
        <ele>202</ele>
        <time>2013-03-13T13:58:19Z</time>
      </trkpt>
      <trkpt lat="43.46293" lon="6.43589">
        <ele>202.6</ele>
        <time>2013-03-13T13:58:26Z</time>
      </trkpt>
      <trkpt lat="43.46299" lon="6.43581">
        <ele>202.8</ele>
        <time>2013-03-13T13:58:33Z</time>
      </trkpt>
      <trkpt lat="43.46299" lon="6.4358">
        <ele>202.8</ele>
        <time>2013-03-13T13:58:34Z</time>
      </trkpt>
      <trkpt lat="43.46309" lon="6.43563">
        <ele>203.7</ele>
        <time>2013-03-13T13:58:47Z</time>
      </trkpt>
      <trkpt lat="43.46313" lon="6.43554">
        <ele>203.7</ele>
        <time>2013-03-13T13:58:54Z</time>
      </trkpt>
      <trkpt lat="43.46317" lon="6.43544">
        <ele>203.4</ele>
        <time>2013-03-13T13:59:01Z</time>
      </trkpt>
      <trkpt lat="43.46322" lon="6.43534">
        <ele>204</ele>
        <time>2013-03-13T13:59:07Z</time>
      </trkpt>
      <trkpt lat="43.46327" lon="6.43526">
        <ele>204.4</ele>
        <time>2013-03-13T13:59:13Z</time>
      </trkpt>
      <trkpt lat="43.46333" lon="6.43519">
        <ele>204</ele>
        <time>2013-03-13T13:59:19Z</time>
      </trkpt>
      <trkpt lat="43.46339" lon="6.43511">
        <ele>203.3</ele>
        <time>2013-03-13T13:59:26Z</time>
      </trkpt>
      <trkpt lat="43.46346" lon="6.43503">
        <ele>204.4</ele>
        <time>2013-03-13T13:59:33Z</time>
      </trkpt>
      <trkpt lat="43.46352" lon="6.43493">
        <ele>203.5</ele>
        <time>2013-03-13T13:59:41Z</time>
      </trkpt>
      <trkpt lat="43.46352" lon="6.43492">
        <ele>203.8</ele>
        <time>2013-03-13T13:59:42Z</time>
      </trkpt>
      <trkpt lat="43.46362" lon="6.43476">
        <ele>205.5</ele>
        <time>2013-03-13T13:59:55Z</time>
      </trkpt>
      <trkpt lat="43.46367" lon="6.43468">
        <ele>205.2</ele>
        <time>2013-03-13T14:00:02Z</time>
      </trkpt>
      <trkpt lat="43.46373" lon="6.43459">
        <ele>205.1</ele>
        <time>2013-03-13T14:00:09Z</time>
      </trkpt>
      <trkpt lat="43.46379" lon="6.4345">
        <ele>206.2</ele>
        <time>2013-03-13T14:00:16Z</time>
      </trkpt>
      <trkpt lat="43.46384" lon="6.43442">
        <ele>205.3</ele>
        <time>2013-03-13T14:00:23Z</time>
      </trkpt>
      <trkpt lat="43.46389" lon="6.43433">
        <ele>206</ele>
        <time>2013-03-13T14:00:30Z</time>
      </trkpt>
      <trkpt lat="43.46394" lon="6.43424">
        <ele>204.8</ele>
        <time>2013-03-13T14:00:37Z</time>
      </trkpt>
      <trkpt lat="43.464" lon="6.43415">
        <ele>206.1</ele>
        <time>2013-03-13T14:00:44Z</time>
      </trkpt>
      <trkpt lat="43.46401" lon="6.43413">
        <ele>206</ele>
        <time>2013-03-13T14:00:45Z</time>
      </trkpt>
      <trkpt lat="43.46409" lon="6.43396">
        <ele>206.7</ele>
        <time>2013-03-13T14:00:58Z</time>
      </trkpt>
      <trkpt lat="43.46414" lon="6.43386">
        <ele>205.3</ele>
        <time>2013-03-13T14:01:05Z</time>
      </trkpt>
      <trkpt lat="43.46417" lon="6.43376">
        <ele>206.6</ele>
        <time>2013-03-13T14:01:12Z</time>
      </trkpt>
      <trkpt lat="43.46419" lon="6.43365">
        <ele>205.4</ele>
        <time>2013-03-13T14:01:19Z</time>
      </trkpt>
      <trkpt lat="43.4642" lon="6.43354">
        <ele>205.5</ele>
        <time>2013-03-13T14:01:26Z</time>
      </trkpt>
      <trkpt lat="43.46423" lon="6.43343">
        <ele>204.9</ele>
        <time>2013-03-13T14:01:34Z</time>
      </trkpt>
      <trkpt lat="43.46427" lon="6.43333">
        <ele>205.8</ele>
        <time>2013-03-13T14:01:42Z</time>
      </trkpt>
      <trkpt lat="43.46431" lon="6.43323">
        <ele>206.2</ele>
        <time>2013-03-13T14:01:50Z</time>
      </trkpt>
      <trkpt lat="43.46431" lon="6.43322">
        <ele>205.5</ele>
        <time>2013-03-13T14:01:51Z</time>
      </trkpt>
      <trkpt lat="43.46439" lon="6.43302">
        <ele>206.6</ele>
        <time>2013-03-13T14:02:08Z</time>
      </trkpt>
      <trkpt lat="43.46445" lon="6.43293">
        <ele>206.4</ele>
        <time>2013-03-13T14:02:15Z</time>
      </trkpt>
      <trkpt lat="43.46451" lon="6.43285">
        <ele>206.9</ele>
        <time>2013-03-13T14:02:22Z</time>
      </trkpt>
      <trkpt lat="43.46457" lon="6.43278">
        <ele>206.5</ele>
        <time>2013-03-13T14:02:32Z</time>
      </trkpt>
      <trkpt lat="43.46462" lon="6.43268">
        <ele>207.5</ele>
        <time>2013-03-13T14:02:48Z</time>
      </trkpt>
      <trkpt lat="43.46471" lon="6.43266">
        <ele>206.9</ele>
        <time>2013-03-13T14:03:52Z</time>
      </trkpt>
      <trkpt lat="43.46471" lon="6.43266">
        <ele>206.9</ele>
        <time>2013-03-13T14:03:53Z</time>
      </trkpt>
      <trkpt lat="43.46477" lon="6.43257">
        <ele>206.2</ele>
        <time>2013-03-13T14:09:39Z</time>
      </trkpt>
      <trkpt lat="43.46489" lon="6.43243">
        <ele>206.2</ele>
        <time>2013-03-13T14:09:53Z</time>
      </trkpt>
      <trkpt lat="43.46496" lon="6.43235">
        <ele>205.2</ele>
        <time>2013-03-13T14:10:01Z</time>
      </trkpt>
      <trkpt lat="43.46501" lon="6.43226">
        <ele>206.4</ele>
        <time>2013-03-13T14:10:09Z</time>
      </trkpt>
      <trkpt lat="43.46502" lon="6.43214">
        <ele>206.2</ele>
        <time>2013-03-13T14:10:24Z</time>
      </trkpt>
      <trkpt lat="43.465" lon="6.43202">
        <ele>207.2</ele>
        <time>2013-03-13T14:10:36Z</time>
      </trkpt>
      <trkpt lat="43.46494" lon="6.43194">
        <ele>209.2</ele>
        <time>2013-03-13T14:10:56Z</time>
      </trkpt>
      <trkpt lat="43.46493" lon="6.43194">
        <ele>208.9</ele>
        <time>2013-03-13T14:10:57Z</time>
      </trkpt>
      <trkpt lat="43.4651" lon="6.43189">
        <ele>207.3</ele>
        <time>2013-03-13T14:11:34Z</time>
      </trkpt>
      <trkpt lat="43.46519" lon="6.43189">
        <ele>206.8</ele>
        <time>2013-03-13T14:11:43Z</time>
      </trkpt>
      <trkpt lat="43.46527" lon="6.43189">
        <ele>207.1</ele>
        <time>2013-03-13T14:11:51Z</time>
      </trkpt>
      <trkpt lat="43.46535" lon="6.43189">
        <ele>207</ele>
        <time>2013-03-13T14:11:59Z</time>
      </trkpt>
      <trkpt lat="43.46536" lon="6.43189">
        <ele>206.7</ele>
        <time>2013-03-13T14:12:00Z</time>
      </trkpt>
      <trkpt lat="43.46552" lon="6.43188">
        <ele>206.5</ele>
        <time>2013-03-13T14:12:16Z</time>
      </trkpt>
      <trkpt lat="43.46561" lon="6.43188">
        <ele>206.2</ele>
        <time>2013-03-13T14:12:23Z</time>
      </trkpt>
      <trkpt lat="43.46569" lon="6.43187">
        <ele>206.3</ele>
        <time>2013-03-13T14:12:31Z</time>
      </trkpt>
      <trkpt lat="43.46578" lon="6.43186">
        <ele>207.7</ele>
        <time>2013-03-13T14:12:40Z</time>
      </trkpt>
      <trkpt lat="43.46586" lon="6.43185">
        <ele>206.9</ele>
        <time>2013-03-13T14:12:48Z</time>
      </trkpt>
      <trkpt lat="43.46595" lon="6.43184">
        <ele>207.8</ele>
        <time>2013-03-13T14:12:57Z</time>
      </trkpt>
      <trkpt lat="43.46603" lon="6.43184">
        <ele>208.5</ele>
        <time>2013-03-13T14:13:05Z</time>
      </trkpt>
      <trkpt lat="43.46604" lon="6.43183">
        <ele>208.6</ele>
        <time>2013-03-13T14:13:06Z</time>
      </trkpt>
      <trkpt lat="43.4662" lon="6.4318">
        <ele>208.3</ele>
        <time>2013-03-13T14:13:22Z</time>
      </trkpt>
      <trkpt lat="43.46628" lon="6.43175">
        <ele>210</ele>
        <time>2013-03-13T14:13:31Z</time>
      </trkpt>
      <trkpt lat="43.46636" lon="6.4317">
        <ele>211.7</ele>
        <time>2013-03-13T14:13:41Z</time>
      </trkpt>
      <trkpt lat="43.46644" lon="6.43165">
        <ele>211.9</ele>
        <time>2013-03-13T14:13:50Z</time>
      </trkpt>
      <trkpt lat="43.46651" lon="6.43161">
        <ele>211.8</ele>
        <time>2013-03-13T14:13:58Z</time>
      </trkpt>
      <trkpt lat="43.46659" lon="6.43157">
        <ele>211.6</ele>
        <time>2013-03-13T14:14:07Z</time>
      </trkpt>
      <trkpt lat="43.4666" lon="6.43156">
        <ele>211.9</ele>
        <time>2013-03-13T14:14:08Z</time>
      </trkpt>
      <trkpt lat="43.46668" lon="6.4314">
        <ele>213.7</ele>
        <time>2013-03-13T14:14:32Z</time>
      </trkpt>
      <trkpt lat="43.46668" lon="6.43129">
        <ele>212.9</ele>
        <time>2013-03-13T14:14:43Z</time>
      </trkpt>
      <trkpt lat="43.46666" lon="6.43117">
        <ele>213.7</ele>
        <time>2013-03-13T14:14:52Z</time>
      </trkpt>
      <trkpt lat="43.46664" lon="6.43105">
        <ele>215.5</ele>
        <time>2013-03-13T14:14:59Z</time>
      </trkpt>
      <trkpt lat="43.46663" lon="6.43094">
        <ele>216.5</ele>
        <time>2013-03-13T14:15:07Z</time>
      </trkpt>
      <trkpt lat="43.46662" lon="6.43082">
        <ele>216.8</ele>
        <time>2013-03-13T14:15:15Z</time>
      </trkpt>
      <trkpt lat="43.46662" lon="6.4308">
        <ele>217</ele>
        <time>2013-03-13T14:15:16Z</time>
      </trkpt>
      <trkpt lat="43.46664" lon="6.4306">
        <ele>216.9</ele>
        <time>2013-03-13T14:15:29Z</time>
      </trkpt>
      <trkpt lat="43.46664" lon="6.43048">
        <ele>216.7</ele>
        <time>2013-03-13T14:15:37Z</time>
      </trkpt>
      <trkpt lat="43.46666" lon="6.43037">
        <ele>216.8</ele>
        <time>2013-03-13T14:15:45Z</time>
      </trkpt>
      <trkpt lat="43.46673" lon="6.43029">
        <ele>215.8</ele>
        <time>2013-03-13T14:15:53Z</time>
      </trkpt>
      <trkpt lat="43.4668" lon="6.43021">
        <ele>216.1</ele>
        <time>2013-03-13T14:16:02Z</time>
      </trkpt>
      <trkpt lat="43.46686" lon="6.43015">
        <ele>216.5</ele>
        <time>2013-03-13T14:16:12Z</time>
      </trkpt>
      <trkpt lat="43.46694" lon="6.4301">
        <ele>215.6</ele>
        <time>2013-03-13T14:16:21Z</time>
      </trkpt>
      <trkpt lat="43.46695" lon="6.4301">
        <ele>215.7</ele>
        <time>2013-03-13T14:16:22Z</time>
      </trkpt>
      <trkpt lat="43.46711" lon="6.43004">
        <ele>216.4</ele>
        <time>2013-03-13T14:16:39Z</time>
      </trkpt>
      <trkpt lat="43.4672" lon="6.43">
        <ele>215.7</ele>
        <time>2013-03-13T14:16:49Z</time>
      </trkpt>
      <trkpt lat="43.46728" lon="6.43">
        <ele>216.8</ele>
        <time>2013-03-13T14:16:58Z</time>
      </trkpt>
      <trkpt lat="43.46736" lon="6.42999">
        <ele>215.8</ele>
        <time>2013-03-13T14:17:05Z</time>
      </trkpt>
      <trkpt lat="43.46744" lon="6.42998">
        <ele>215.6</ele>
        <time>2013-03-13T14:17:13Z</time>
      </trkpt>
      <trkpt lat="43.46752" lon="6.42994">
        <ele>216.4</ele>
        <time>2013-03-13T14:17:20Z</time>
      </trkpt>
      <trkpt lat="43.4676" lon="6.4299">
        <ele>216.9</ele>
        <time>2013-03-13T14:17:26Z</time>
      </trkpt>
      <trkpt lat="43.46761" lon="6.42989">
        <ele>217.1</ele>
        <time>2013-03-13T14:17:27Z</time>
      </trkpt>
      <trkpt lat="43.46773" lon="6.42976">
        <ele>218</ele>
        <time>2013-03-13T14:17:41Z</time>
      </trkpt>
      <trkpt lat="43.4678" lon="6.4297">
        <ele>217.6</ele>
        <time>2013-03-13T14:17:48Z</time>
      </trkpt>
      <trkpt lat="43.46786" lon="6.42963">
        <ele>219.2</ele>
        <time>2013-03-13T14:17:57Z</time>
      </trkpt>
      <trkpt lat="43.46793" lon="6.42957">
        <ele>219</ele>
        <time>2013-03-13T14:18:06Z</time>
      </trkpt>
      <trkpt lat="43.468" lon="6.42951">
        <ele>219.5</ele>
        <time>2013-03-13T14:18:16Z</time>
      </trkpt>
      <trkpt lat="43.46808" lon="6.42946">
        <ele>218</ele>
        <time>2013-03-13T14:18:25Z</time>
      </trkpt>
      <trkpt lat="43.46817" lon="6.42942">
        <ele>218</ele>
        <time>2013-03-13T14:18:35Z</time>
      </trkpt>
      <trkpt lat="43.46818" lon="6.42941">
        <ele>218.3</ele>
        <time>2013-03-13T14:18:36Z</time>
      </trkpt>
      <trkpt lat="43.46832" lon="6.42934">
        <ele>216.7</ele>
        <time>2013-03-13T14:18:51Z</time>
      </trkpt>
      <trkpt lat="43.4684" lon="6.4293">
        <ele>217.6</ele>
        <time>2013-03-13T14:19:00Z</time>
      </trkpt>
      <trkpt lat="43.46849" lon="6.42928">
        <ele>216.5</ele>
        <time>2013-03-13T14:19:08Z</time>
      </trkpt>
      <trkpt lat="43.46857" lon="6.42928">
        <ele>216.4</ele>
        <time>2013-03-13T14:19:16Z</time>
      </trkpt>
      <trkpt lat="43.46865" lon="6.4293">
        <ele>216.6</ele>
        <time>2013-03-13T14:19:22Z</time>
      </trkpt>
      <trkpt lat="43.46874" lon="6.42929">
        <ele>215.6</ele>
        <time>2013-03-13T14:19:29Z</time>
      </trkpt>
      <trkpt lat="43.46882" lon="6.42926">
        <ele>216.6</ele>
        <time>2013-03-13T14:19:38Z</time>
      </trkpt>
      <trkpt lat="43.46883" lon="6.42926">
        <ele>216.4</ele>
        <time>2013-03-13T14:19:39Z</time>
      </trkpt>
      <trkpt lat="43.46899" lon="6.42924">
        <ele>214.4</ele>
        <time>2013-03-13T14:19:57Z</time>
      </trkpt>
      <trkpt lat="43.46907" lon="6.42924">
        <ele>215.5</ele>
        <time>2013-03-13T14:20:05Z</time>
      </trkpt>
      <trkpt lat="43.46916" lon="6.42923">
        <ele>214.6</ele>
        <time>2013-03-13T14:20:12Z</time>
      </trkpt>
      <trkpt lat="43.46924" lon="6.42923">
        <ele>214.8</ele>
        <time>2013-03-13T14:20:19Z</time>
      </trkpt>
      <trkpt lat="43.46932" lon="6.42921">
        <ele>213.5</ele>
        <time>2013-03-13T14:20:27Z</time>
      </trkpt>
      <trkpt lat="43.4694" lon="6.42915">
        <ele>213.4</ele>
        <time>2013-03-13T14:20:36Z</time>
      </trkpt>
      <trkpt lat="43.46946" lon="6.42908">
        <ele>213.3</ele>
        <time>2013-03-13T14:20:43Z</time>
      </trkpt>
      <trkpt lat="43.46947" lon="6.42907">
        <ele>213.2</ele>
        <time>2013-03-13T14:20:44Z</time>
      </trkpt>
      <trkpt lat="43.46956" lon="6.42889">
        <ele>214.9</ele>
        <time>2013-03-13T14:20:58Z</time>
      </trkpt>
      <trkpt lat="43.46961" lon="6.4288">
        <ele>214.4</ele>
        <time>2013-03-13T14:21:06Z</time>
      </trkpt>
      <trkpt lat="43.46965" lon="6.4287">
        <ele>215.2</ele>
        <time>2013-03-13T14:21:15Z</time>
      </trkpt>
      <trkpt lat="43.46969" lon="6.4286">
        <ele>215.4</ele>
        <time>2013-03-13T14:21:24Z</time>
      </trkpt>
      <trkpt lat="43.46974" lon="6.42851">
        <ele>216.1</ele>
        <time>2013-03-13T14:21:33Z</time>
      </trkpt>
      <trkpt lat="43.46977" lon="6.42841">
        <ele>217.6</ele>
        <time>2013-03-13T14:21:42Z</time>
      </trkpt>
      <trkpt lat="43.46981" lon="6.42831">
        <ele>216.9</ele>
        <time>2013-03-13T14:21:50Z</time>
      </trkpt>
      <trkpt lat="43.46982" lon="6.42829">
        <ele>216.7</ele>
        <time>2013-03-13T14:21:51Z</time>
      </trkpt>
      <trkpt lat="43.46994" lon="6.42816">
        <ele>217.6</ele>
        <time>2013-03-13T14:22:04Z</time>
      </trkpt>
      <trkpt lat="43.47001" lon="6.4281">
        <ele>216.9</ele>
        <time>2013-03-13T14:22:10Z</time>
      </trkpt>
      <trkpt lat="43.47008" lon="6.42804">
        <ele>216.6</ele>
        <time>2013-03-13T14:22:17Z</time>
      </trkpt>
      <trkpt lat="43.47014" lon="6.42796">
        <ele>216.4</ele>
        <time>2013-03-13T14:22:25Z</time>
      </trkpt>
      <trkpt lat="43.4702" lon="6.42788">
        <ele>216.2</ele>
        <time>2013-03-13T14:22:33Z</time>
      </trkpt>
      <trkpt lat="43.47025" lon="6.42778">
        <ele>216.5</ele>
        <time>2013-03-13T14:22:42Z</time>
      </trkpt>
      <trkpt lat="43.4703" lon="6.42769">
        <ele>217.1</ele>
        <time>2013-03-13T14:22:49Z</time>
      </trkpt>
      <trkpt lat="43.47034" lon="6.42759">
        <ele>216.4</ele>
        <time>2013-03-13T14:22:57Z</time>
      </trkpt>
      <trkpt lat="43.47035" lon="6.42758">
        <ele>216</ele>
        <time>2013-03-13T14:22:58Z</time>
      </trkpt>
      <trkpt lat="43.47045" lon="6.42742">
        <ele>217</ele>
        <time>2013-03-13T14:23:14Z</time>
      </trkpt>
      <trkpt lat="43.47052" lon="6.42735">
        <ele>217.1</ele>
        <time>2013-03-13T14:23:21Z</time>
      </trkpt>
      <trkpt lat="43.47057" lon="6.42726">
        <ele>218.9</ele>
        <time>2013-03-13T14:23:30Z</time>
      </trkpt>
      <trkpt lat="43.47064" lon="6.42718">
        <ele>218.9</ele>
        <time>2013-03-13T14:23:37Z</time>
      </trkpt>
      <trkpt lat="43.47068" lon="6.42709">
        <ele>219.4</ele>
        <time>2013-03-13T14:23:44Z</time>
      </trkpt>
      <trkpt lat="43.47074" lon="6.42701">
        <ele>220.2</ele>
        <time>2013-03-13T14:23:50Z</time>
      </trkpt>
      <trkpt lat="43.4708" lon="6.42692">
        <ele>219.6</ele>
        <time>2013-03-13T14:23:59Z</time>
      </trkpt>
      <trkpt lat="43.4708" lon="6.42691">
        <ele>220.2</ele>
        <time>2013-03-13T14:24:00Z</time>
      </trkpt>
      <trkpt lat="43.47091" lon="6.42674">
        <ele>217.9</ele>
        <time>2013-03-13T14:24:14Z</time>
      </trkpt>
      <trkpt lat="43.47096" lon="6.42665">
        <ele>219.3</ele>
        <time>2013-03-13T14:24:22Z</time>
      </trkpt>
      <trkpt lat="43.47102" lon="6.42655">
        <ele>219.2</ele>
        <time>2013-03-13T14:24:32Z</time>
      </trkpt>
      <trkpt lat="43.47105" lon="6.42644">
        <ele>217.8</ele>
        <time>2013-03-13T14:24:43Z</time>
      </trkpt>
      <trkpt lat="43.47108" lon="6.42633">
        <ele>217.7</ele>
        <time>2013-03-13T14:24:51Z</time>
      </trkpt>
      <trkpt lat="43.47114" lon="6.42625">
        <ele>217.4</ele>
        <time>2013-03-13T14:25:05Z</time>
      </trkpt>
      <trkpt lat="43.47115" lon="6.42625">
        <ele>217.3</ele>
        <time>2013-03-13T14:25:06Z</time>
      </trkpt>
      <trkpt lat="43.47132" lon="6.42628">
        <ele>219.7</ele>
        <time>2013-03-13T14:25:28Z</time>
      </trkpt>
      <trkpt lat="43.4714" lon="6.4263">
        <ele>221.1</ele>
        <time>2013-03-13T14:25:36Z</time>
      </trkpt>
      <trkpt lat="43.47148" lon="6.42631">
        <ele>223.3</ele>
        <time>2013-03-13T14:25:45Z</time>
      </trkpt>
      <trkpt lat="43.47157" lon="6.42631">
        <ele>224.1</ele>
        <time>2013-03-13T14:25:54Z</time>
      </trkpt>
      <trkpt lat="43.47166" lon="6.42632">
        <ele>225.6</ele>
        <time>2013-03-13T14:26:06Z</time>
      </trkpt>
      <trkpt lat="43.47166" lon="6.42632">
        <ele>225</ele>
        <time>2013-03-13T14:26:07Z</time>
      </trkpt>
      <trkpt lat="43.47182" lon="6.42637">
        <ele>228.4</ele>
        <time>2013-03-13T14:26:24Z</time>
      </trkpt>
      <trkpt lat="43.47191" lon="6.42637">
        <ele>228.5</ele>
        <time>2013-03-13T14:26:33Z</time>
      </trkpt>
      <trkpt lat="43.47199" lon="6.42638">
        <ele>229.7</ele>
        <time>2013-03-13T14:26:41Z</time>
      </trkpt>
      <trkpt lat="43.47208" lon="6.4264">
        <ele>230.5</ele>
        <time>2013-03-13T14:26:51Z</time>
      </trkpt>
      <trkpt lat="43.47216" lon="6.42642">
        <ele>229.3</ele>
        <time>2013-03-13T14:27:08Z</time>
      </trkpt>
      <trkpt lat="43.47217" lon="6.42642">
        <ele>229.8</ele>
        <time>2013-03-13T14:27:09Z</time>
      </trkpt>
      <trkpt lat="43.47225" lon="6.4264">
        <ele>230.3</ele>
        <time>2013-03-13T14:30:26Z</time>
      </trkpt>
      <trkpt lat="43.4724" lon="6.42632">
        <ele>227.4</ele>
        <time>2013-03-13T14:30:46Z</time>
      </trkpt>
      <trkpt lat="43.47247" lon="6.42624">
        <ele>226.8</ele>
        <time>2013-03-13T14:30:54Z</time>
      </trkpt>
      <trkpt lat="43.47255" lon="6.42621">
        <ele>225.3</ele>
        <time>2013-03-13T14:31:03Z</time>
      </trkpt>
      <trkpt lat="43.47264" lon="6.42622">
        <ele>224.6</ele>
        <time>2013-03-13T14:31:12Z</time>
      </trkpt>
      <trkpt lat="43.47272" lon="6.42624">
        <ele>223.3</ele>
        <time>2013-03-13T14:31:22Z</time>
      </trkpt>
      <trkpt lat="43.47281" lon="6.42627">
        <ele>222.9</ele>
        <time>2013-03-13T14:31:30Z</time>
      </trkpt>
      <trkpt lat="43.47282" lon="6.42628">
        <ele>223.1</ele>
        <time>2013-03-13T14:31:31Z</time>
      </trkpt>
      <trkpt lat="43.47297" lon="6.42632">
        <ele>222.2</ele>
        <time>2013-03-13T14:31:47Z</time>
      </trkpt>
      <trkpt lat="43.47299" lon="6.42621">
        <ele>219.5</ele>
        <time>2013-03-13T14:32:00Z</time>
      </trkpt>
      <trkpt lat="43.47295" lon="6.4261">
        <ele>219.1</ele>
        <time>2013-03-13T14:32:14Z</time>
      </trkpt>
      <trkpt lat="43.47294" lon="6.42599">
        <ele>217.1</ele>
        <time>2013-03-13T14:32:23Z</time>
      </trkpt>
      <trkpt lat="43.47295" lon="6.42587">
        <ele>215.8</ele>
        <time>2013-03-13T14:32:32Z</time>
      </trkpt>
      <trkpt lat="43.47295" lon="6.42586">
        <ele>216.1</ele>
        <time>2013-03-13T14:32:33Z</time>
      </trkpt>
      <trkpt lat="43.47303" lon="6.42565">
        <ele>214.8</ele>
        <time>2013-03-13T14:32:50Z</time>
      </trkpt>
      <trkpt lat="43.47308" lon="6.42557">
        <ele>213.6</ele>
        <time>2013-03-13T14:32:57Z</time>
      </trkpt>
      <trkpt lat="43.47313" lon="6.42547">
        <ele>212.7</ele>
        <time>2013-03-13T14:33:05Z</time>
      </trkpt>
      <trkpt lat="43.47317" lon="6.42538">
        <ele>212.5</ele>
        <time>2013-03-13T14:33:12Z</time>
      </trkpt>
      <trkpt lat="43.47322" lon="6.42528">
        <ele>211.5</ele>
        <time>2013-03-13T14:33:20Z</time>
      </trkpt>
      <trkpt lat="43.47327" lon="6.42519">
        <ele>211.5</ele>
        <time>2013-03-13T14:33:28Z</time>
      </trkpt>
      <trkpt lat="43.47333" lon="6.4251">
        <ele>210.9</ele>
        <time>2013-03-13T14:33:35Z</time>
      </trkpt>
      <trkpt lat="43.47334" lon="6.42509">
        <ele>211</ele>
        <time>2013-03-13T14:33:36Z</time>
      </trkpt>
      <trkpt lat="43.47341" lon="6.4249">
        <ele>208</ele>
        <time>2013-03-13T14:33:49Z</time>
      </trkpt>
      <trkpt lat="43.47344" lon="6.42479">
        <ele>208.4</ele>
        <time>2013-03-13T14:33:56Z</time>
      </trkpt>
      <trkpt lat="43.47348" lon="6.42469">
        <ele>208</ele>
        <time>2013-03-13T14:34:03Z</time>
      </trkpt>
      <trkpt lat="43.47352" lon="6.42459">
        <ele>206.3</ele>
        <time>2013-03-13T14:34:10Z</time>
      </trkpt>
      <trkpt lat="43.47355" lon="6.42448">
        <ele>205.4</ele>
        <time>2013-03-13T14:34:18Z</time>
      </trkpt>
      <trkpt lat="43.47358" lon="6.42438">
        <ele>204.8</ele>
        <time>2013-03-13T14:34:26Z</time>
      </trkpt>
      <trkpt lat="43.47361" lon="6.42427">
        <ele>204.3</ele>
        <time>2013-03-13T14:34:34Z</time>
      </trkpt>
      <trkpt lat="43.47364" lon="6.42416">
        <ele>203.1</ele>
        <time>2013-03-13T14:34:43Z</time>
      </trkpt>
      <trkpt lat="43.47364" lon="6.42415">
        <ele>202.1</ele>
        <time>2013-03-13T14:34:44Z</time>
      </trkpt>
      <trkpt lat="43.4737" lon="6.42394">
        <ele>200.6</ele>
        <time>2013-03-13T14:35:01Z</time>
      </trkpt>
      <trkpt lat="43.47372" lon="6.42384">
        <ele>199.8</ele>
        <time>2013-03-13T14:35:08Z</time>
      </trkpt>
      <trkpt lat="43.47375" lon="6.42373">
        <ele>198.6</ele>
        <time>2013-03-13T14:35:16Z</time>
      </trkpt>
      <trkpt lat="43.47379" lon="6.42362">
        <ele>197.5</ele>
        <time>2013-03-13T14:35:26Z</time>
      </trkpt>
      <trkpt lat="43.47384" lon="6.42354">
        <ele>196.2</ele>
        <time>2013-03-13T14:35:35Z</time>
      </trkpt>
      <trkpt lat="43.47391" lon="6.42346">
        <ele>195.4</ele>
        <time>2013-03-13T14:35:43Z</time>
      </trkpt>
      <trkpt lat="43.47397" lon="6.42338">
        <ele>195.3</ele>
        <time>2013-03-13T14:35:52Z</time>
      </trkpt>
      <trkpt lat="43.47398" lon="6.42337">
        <ele>194.8</ele>
        <time>2013-03-13T14:35:53Z</time>
      </trkpt>
      <trkpt lat="43.47409" lon="6.42322">
        <ele>192.1</ele>
        <time>2013-03-13T14:36:09Z</time>
      </trkpt>
      <trkpt lat="43.47416" lon="6.42314">
        <ele>190.8</ele>
        <time>2013-03-13T14:36:17Z</time>
      </trkpt>
      <trkpt lat="43.47422" lon="6.42306">
        <ele>190.9</ele>
        <time>2013-03-13T14:36:25Z</time>
      </trkpt>
      <trkpt lat="43.47429" lon="6.42299">
        <ele>189.3</ele>
        <time>2013-03-13T14:36:33Z</time>
      </trkpt>
      <trkpt lat="43.47436" lon="6.42293">
        <ele>188.6</ele>
        <time>2013-03-13T14:36:41Z</time>
      </trkpt>
      <trkpt lat="43.47444" lon="6.42289">
        <ele>188.5</ele>
        <time>2013-03-13T14:36:49Z</time>
      </trkpt>
      <trkpt lat="43.47452" lon="6.42284">
        <ele>187.2</ele>
        <time>2013-03-13T14:36:58Z</time>
      </trkpt>
      <trkpt lat="43.47453" lon="6.42283">
        <ele>187</ele>
        <time>2013-03-13T14:36:59Z</time>
      </trkpt>
      <trkpt lat="43.47467" lon="6.42274">
        <ele>186.4</ele>
        <time>2013-03-13T14:37:11Z</time>
      </trkpt>
      <trkpt lat="43.47474" lon="6.42268">
        <ele>185.8</ele>
        <time>2013-03-13T14:37:18Z</time>
      </trkpt>
      <trkpt lat="43.47481" lon="6.42263">
        <ele>186</ele>
        <time>2013-03-13T14:37:25Z</time>
      </trkpt>
      <trkpt lat="43.47489" lon="6.42256">
        <ele>185.5</ele>
        <time>2013-03-13T14:37:33Z</time>
      </trkpt>
      <trkpt lat="43.47495" lon="6.42249">
        <ele>184.3</ele>
        <time>2013-03-13T14:37:41Z</time>
      </trkpt>
      <trkpt lat="43.47501" lon="6.4224">
        <ele>184.4</ele>
        <time>2013-03-13T14:37:49Z</time>
      </trkpt>
      <trkpt lat="43.47503" lon="6.42228">
        <ele>182.4</ele>
        <time>2013-03-13T14:37:58Z</time>
      </trkpt>
      <trkpt lat="43.47503" lon="6.42217">
        <ele>183.3</ele>
        <time>2013-03-13T14:38:07Z</time>
      </trkpt>
      <trkpt lat="43.47503" lon="6.42216">
        <ele>183.3</ele>
        <time>2013-03-13T14:38:08Z</time>
      </trkpt>
      <trkpt lat="43.475" lon="6.42193">
        <ele>182.1</ele>
        <time>2013-03-13T14:38:23Z</time>
      </trkpt>
      <trkpt lat="43.47501" lon="6.42182">
        <ele>181.6</ele>
        <time>2013-03-13T14:38:30Z</time>
      </trkpt>
      <trkpt lat="43.475" lon="6.42171">
        <ele>181.4</ele>
        <time>2013-03-13T14:38:37Z</time>
      </trkpt>
      <trkpt lat="43.47498" lon="6.42161">
        <ele>180.7</ele>
        <time>2013-03-13T14:38:43Z</time>
      </trkpt>
      <trkpt lat="43.47496" lon="6.4215">
        <ele>180.4</ele>
        <time>2013-03-13T14:38:50Z</time>
      </trkpt>
      <trkpt lat="43.47493" lon="6.42138">
        <ele>180.3</ele>
        <time>2013-03-13T14:38:58Z</time>
      </trkpt>
      <trkpt lat="43.47491" lon="6.42128">
        <ele>179.5</ele>
        <time>2013-03-13T14:39:05Z</time>
      </trkpt>
      <trkpt lat="43.47488" lon="6.42116">
        <ele>179.8</ele>
        <time>2013-03-13T14:39:13Z</time>
      </trkpt>
      <trkpt lat="43.47488" lon="6.42115">
        <ele>180.3</ele>
        <time>2013-03-13T14:39:14Z</time>
      </trkpt>
      <trkpt lat="43.47485" lon="6.42093">
        <ele>178.1</ele>
        <time>2013-03-13T14:39:29Z</time>
      </trkpt>
      <trkpt lat="43.47484" lon="6.42081">
        <ele>177.1</ele>
        <time>2013-03-13T14:39:37Z</time>
      </trkpt>
      <trkpt lat="43.47483" lon="6.42069">
        <ele>176.2</ele>
        <time>2013-03-13T14:39:45Z</time>
      </trkpt>
      <trkpt lat="43.47481" lon="6.42057">
        <ele>175.7</ele>
        <time>2013-03-13T14:39:54Z</time>
      </trkpt>
      <trkpt lat="43.47481" lon="6.42045">
        <ele>174</ele>
        <time>2013-03-13T14:40:02Z</time>
      </trkpt>
      <trkpt lat="43.47481" lon="6.42034">
        <ele>174.1</ele>
        <time>2013-03-13T14:40:09Z</time>
      </trkpt>
      <trkpt lat="43.47481" lon="6.42022">
        <ele>174.2</ele>
        <time>2013-03-13T14:40:17Z</time>
      </trkpt>
      <trkpt lat="43.47481" lon="6.4202">
        <ele>174.1</ele>
        <time>2013-03-13T14:40:18Z</time>
      </trkpt>
      <trkpt lat="43.47484" lon="6.41999">
        <ele>172.4</ele>
        <time>2013-03-13T14:40:31Z</time>
      </trkpt>
      <trkpt lat="43.47486" lon="6.41988">
        <ele>172.1</ele>
        <time>2013-03-13T14:40:38Z</time>
      </trkpt>
      <trkpt lat="43.47491" lon="6.41978">
        <ele>170.7</ele>
        <time>2013-03-13T14:40:45Z</time>
      </trkpt>
      <trkpt lat="43.47495" lon="6.41967">
        <ele>169.8</ele>
        <time>2013-03-13T14:40:53Z</time>
      </trkpt>
      <trkpt lat="43.47499" lon="6.41958">
        <ele>169.6</ele>
        <time>2013-03-13T14:41:01Z</time>
      </trkpt>
      <trkpt lat="43.47501" lon="6.41946">
        <ele>167.9</ele>
        <time>2013-03-13T14:41:10Z</time>
      </trkpt>
      <trkpt lat="43.47502" lon="6.41935">
        <ele>168.4</ele>
        <time>2013-03-13T14:41:17Z</time>
      </trkpt>
      <trkpt lat="43.4751" lon="6.4194">
        <ele>165.5</ele>
        <time>2013-03-13T14:41:38Z</time>
      </trkpt>
      <trkpt lat="43.4751" lon="6.41942">
        <ele>165.5</ele>
        <time>2013-03-13T14:41:39Z</time>
      </trkpt>
      <trkpt lat="43.4751" lon="6.41964">
        <ele>164.4</ele>
        <time>2013-03-13T14:41:58Z</time>
      </trkpt>
      <trkpt lat="43.47509" lon="6.41975">
        <ele>163.7</ele>
        <time>2013-03-13T14:42:06Z</time>
      </trkpt>
      <trkpt lat="43.47508" lon="6.41986">
        <ele>163</ele>
        <time>2013-03-13T14:42:14Z</time>
      </trkpt>
      <trkpt lat="43.47507" lon="6.41997">
        <ele>162.4</ele>
        <time>2013-03-13T14:42:21Z</time>
      </trkpt>
      <trkpt lat="43.47508" lon="6.42009">
        <ele>160.7</ele>
        <time>2013-03-13T14:42:30Z</time>
      </trkpt>
      <trkpt lat="43.4751" lon="6.4202">
        <ele>159.6</ele>
        <time>2013-03-13T14:42:39Z</time>
      </trkpt>
      <trkpt lat="43.47511" lon="6.42021">
        <ele>159.5</ele>
        <time>2013-03-13T14:42:40Z</time>
      </trkpt>
      <trkpt lat="43.47513" lon="6.42042">
        <ele>158.6</ele>
        <time>2013-03-13T14:42:53Z</time>
      </trkpt>
      <trkpt lat="43.47519" lon="6.42034">
        <ele>156.9</ele>
        <time>2013-03-13T14:43:12Z</time>
      </trkpt>
      <trkpt lat="43.47518" lon="6.42022">
        <ele>156.1</ele>
        <time>2013-03-13T14:43:22Z</time>
      </trkpt>
      <trkpt lat="43.47518" lon="6.4201">
        <ele>155.5</ele>
        <time>2013-03-13T14:43:31Z</time>
      </trkpt>
      <trkpt lat="43.47521" lon="6.41999">
        <ele>154.3</ele>
        <time>2013-03-13T14:43:39Z</time>
      </trkpt>
      <trkpt lat="43.47524" lon="6.41989">
        <ele>154.2</ele>
        <time>2013-03-13T14:43:47Z</time>
      </trkpt>
      <trkpt lat="43.47525" lon="6.41988">
        <ele>153.4</ele>
        <time>2013-03-13T14:43:48Z</time>
      </trkpt>
      <trkpt lat="43.47532" lon="6.4197">
        <ele>151.8</ele>
        <time>2013-03-13T14:44:03Z</time>
      </trkpt>
      <trkpt lat="43.47536" lon="6.41959">
        <ele>152</ele>
        <time>2013-03-13T14:44:12Z</time>
      </trkpt>
      <trkpt lat="43.47539" lon="6.4195">
        <ele>151.5</ele>
        <time>2013-03-13T14:44:19Z</time>
      </trkpt>
      <trkpt lat="43.47543" lon="6.41939">
        <ele>149.3</ele>
        <time>2013-03-13T14:44:27Z</time>
      </trkpt>
      <trkpt lat="43.47548" lon="6.4193">
        <ele>148.8</ele>
        <time>2013-03-13T14:44:34Z</time>
      </trkpt>
      <trkpt lat="43.47552" lon="6.41919">
        <ele>148.7</ele>
        <time>2013-03-13T14:44:42Z</time>
      </trkpt>
      <trkpt lat="43.47555" lon="6.41908">
        <ele>147.6</ele>
        <time>2013-03-13T14:44:50Z</time>
      </trkpt>
      <trkpt lat="43.47556" lon="6.41907">
        <ele>147.6</ele>
        <time>2013-03-13T14:44:51Z</time>
      </trkpt>
      <trkpt lat="43.4756" lon="6.41886">
        <ele>145.1</ele>
        <time>2013-03-13T14:45:05Z</time>
      </trkpt>
      <trkpt lat="43.47561" lon="6.41874">
        <ele>144.9</ele>
        <time>2013-03-13T14:45:12Z</time>
      </trkpt>
      <trkpt lat="43.4756" lon="6.41863">
        <ele>142</ele>
        <time>2013-03-13T14:45:20Z</time>
      </trkpt>
      <trkpt lat="43.47559" lon="6.41851">
        <ele>141.6</ele>
        <time>2013-03-13T14:45:29Z</time>
      </trkpt>
      <trkpt lat="43.47557" lon="6.41841">
        <ele>141.5</ele>
        <time>2013-03-13T14:45:36Z</time>
      </trkpt>
      <trkpt lat="43.47554" lon="6.4183">
        <ele>141</ele>
        <time>2013-03-13T14:45:43Z</time>
      </trkpt>
      <trkpt lat="43.4755" lon="6.41821">
        <ele>140.1</ele>
        <time>2013-03-13T14:45:50Z</time>
      </trkpt>
      <trkpt lat="43.47546" lon="6.41812">
        <ele>140.4</ele>
        <time>2013-03-13T14:45:57Z</time>
      </trkpt>
      <trkpt lat="43.47545" lon="6.4181">
        <ele>139.7</ele>
        <time>2013-03-13T14:45:58Z</time>
      </trkpt>
      <trkpt lat="43.47534" lon="6.41794">
        <ele>137.6</ele>
        <time>2013-03-13T14:46:13Z</time>
      </trkpt>
      <trkpt lat="43.47527" lon="6.41787">
        <ele>137.7</ele>
        <time>2013-03-13T14:46:20Z</time>
      </trkpt>
      <trkpt lat="43.47521" lon="6.4178">
        <ele>137.8</ele>
        <time>2013-03-13T14:46:27Z</time>
      </trkpt>
      <trkpt lat="43.47515" lon="6.41772">
        <ele>135.4</ele>
        <time>2013-03-13T14:46:34Z</time>
      </trkpt>
      <trkpt lat="43.47509" lon="6.41763">
        <ele>135.9</ele>
        <time>2013-03-13T14:46:41Z</time>
      </trkpt>
      <trkpt lat="43.47504" lon="6.41753">
        <ele>134.9</ele>
        <time>2013-03-13T14:46:48Z</time>
      </trkpt>
      <trkpt lat="43.47498" lon="6.41745">
        <ele>134.5</ele>
        <time>2013-03-13T14:46:56Z</time>
      </trkpt>
      <trkpt lat="43.47492" lon="6.41737">
        <ele>132.9</ele>
        <time>2013-03-13T14:47:04Z</time>
      </trkpt>
      <trkpt lat="43.47491" lon="6.41736">
        <ele>133.3</ele>
        <time>2013-03-13T14:47:05Z</time>
      </trkpt>
      <trkpt lat="43.4748" lon="6.41721">
        <ele>132.4</ele>
        <time>2013-03-13T14:47:19Z</time>
      </trkpt>
      <trkpt lat="43.47474" lon="6.41713">
        <ele>131.8</ele>
        <time>2013-03-13T14:47:27Z</time>
      </trkpt>
      <trkpt lat="43.47467" lon="6.41705">
        <ele>130.5</ele>
        <time>2013-03-13T14:47:35Z</time>
      </trkpt>
      <trkpt lat="43.4746" lon="6.41698">
        <ele>129.7</ele>
        <time>2013-03-13T14:47:42Z</time>
      </trkpt>
      <trkpt lat="43.47453" lon="6.41691">
        <ele>129.6</ele>
        <time>2013-03-13T14:47:49Z</time>
      </trkpt>
      <trkpt lat="43.47446" lon="6.41685">
        <ele>129.8</ele>
        <time>2013-03-13T14:47:55Z</time>
      </trkpt>
      <trkpt lat="43.47439" lon="6.4168">
        <ele>129.1</ele>
        <time>2013-03-13T14:48:01Z</time>
      </trkpt>
      <trkpt lat="43.47431" lon="6.41676">
        <ele>129.1</ele>
        <time>2013-03-13T14:48:07Z</time>
      </trkpt>
      <trkpt lat="43.47429" lon="6.41676">
        <ele>129.5</ele>
        <time>2013-03-13T14:48:08Z</time>
      </trkpt>
      <trkpt lat="43.47414" lon="6.41674">
        <ele>129.5</ele>
        <time>2013-03-13T14:48:23Z</time>
      </trkpt>
      <trkpt lat="43.47405" lon="6.41673">
        <ele>130</ele>
        <time>2013-03-13T14:49:08Z</time>
      </trkpt>
      <trkpt lat="43.47405" lon="6.41673">
        <ele>129.8</ele>
        <time>2013-03-13T14:49:09Z</time>
      </trkpt>
      <trkpt lat="43.47396" lon="6.41678">
        <ele>128.9</ele>
        <time>2013-03-13T14:51:09Z</time>
      </trkpt>
      <trkpt lat="43.47381" lon="6.41683">
        <ele>128.9</ele>
        <time>2013-03-13T14:51:26Z</time>
      </trkpt>
      <trkpt lat="43.47373" lon="6.41686">
        <ele>128.5</ele>
        <time>2013-03-13T14:51:34Z</time>
      </trkpt>
      <trkpt lat="43.47365" lon="6.41688">
        <ele>127.6</ele>
        <time>2013-03-13T14:51:41Z</time>
      </trkpt>
      <trkpt lat="43.47357" lon="6.41689">
        <ele>127</ele>
        <time>2013-03-13T14:51:48Z</time>
      </trkpt>
      <trkpt lat="43.47349" lon="6.4169">
        <ele>126.6</ele>
        <time>2013-03-13T14:51:55Z</time>
      </trkpt>
      <trkpt lat="43.4734" lon="6.41692">
        <ele>126.9</ele>
        <time>2013-03-13T14:52:03Z</time>
      </trkpt>
      <trkpt lat="43.47332" lon="6.41694">
        <ele>126.7</ele>
        <time>2013-03-13T14:52:10Z</time>
      </trkpt>
      <trkpt lat="43.47331" lon="6.41694">
        <ele>126.5</ele>
        <time>2013-03-13T14:52:11Z</time>
      </trkpt>
      <trkpt lat="43.47316" lon="6.41696">
        <ele>126.2</ele>
        <time>2013-03-13T14:52:24Z</time>
      </trkpt>
      <trkpt lat="43.47308" lon="6.41697">
        <ele>126.8</ele>
        <time>2013-03-13T14:52:31Z</time>
      </trkpt>
      <trkpt lat="43.47299" lon="6.41697">
        <ele>126.5</ele>
        <time>2013-03-13T14:52:38Z</time>
      </trkpt>
      <trkpt lat="43.47291" lon="6.41697">
        <ele>125.6</ele>
        <time>2013-03-13T14:52:46Z</time>
      </trkpt>
      <trkpt lat="43.47282" lon="6.41698">
        <ele>126.8</ele>
        <time>2013-03-13T14:52:54Z</time>
      </trkpt>
      <trkpt lat="43.47274" lon="6.41698">
        <ele>126.9</ele>
        <time>2013-03-13T14:53:01Z</time>
      </trkpt>
      <trkpt lat="43.47266" lon="6.41699">
        <ele>126.9</ele>
        <time>2013-03-13T14:53:08Z</time>
      </trkpt>
      <trkpt lat="43.47258" lon="6.417">
        <ele>128.1</ele>
        <time>2013-03-13T14:53:15Z</time>
      </trkpt>
      <trkpt lat="43.47257" lon="6.41701">
        <ele>127.5</ele>
        <time>2013-03-13T14:53:16Z</time>
      </trkpt>
      <trkpt lat="43.47242" lon="6.41702">
        <ele>128.7</ele>
        <time>2013-03-13T14:53:29Z</time>
      </trkpt>
      <trkpt lat="43.47234" lon="6.41703">
        <ele>127.5</ele>
        <time>2013-03-13T14:53:35Z</time>
      </trkpt>
      <trkpt lat="43.47226" lon="6.41703">
        <ele>127.4</ele>
        <time>2013-03-13T14:53:41Z</time>
      </trkpt>
      <trkpt lat="43.47218" lon="6.41704">
        <ele>128</ele>
        <time>2013-03-13T14:53:48Z</time>
      </trkpt>
      <trkpt lat="43.47209" lon="6.41704">
        <ele>129.2</ele>
        <time>2013-03-13T14:53:55Z</time>
      </trkpt>
      <trkpt lat="43.47201" lon="6.41703">
        <ele>130</ele>
        <time>2013-03-13T14:54:02Z</time>
      </trkpt>
      <trkpt lat="43.47192" lon="6.41703">
        <ele>130</ele>
        <time>2013-03-13T14:54:10Z</time>
      </trkpt>
      <trkpt lat="43.47184" lon="6.41703">
        <ele>128.8</ele>
        <time>2013-03-13T14:54:17Z</time>
      </trkpt>
      <trkpt lat="43.47183" lon="6.41702">
        <ele>129</ele>
        <time>2013-03-13T14:54:18Z</time>
      </trkpt>
      <trkpt lat="43.47167" lon="6.41699">
        <ele>129.6</ele>
        <time>2013-03-13T14:54:31Z</time>
      </trkpt>
      <trkpt lat="43.47159" lon="6.41695">
        <ele>130.1</ele>
        <time>2013-03-13T14:54:38Z</time>
      </trkpt>
      <trkpt lat="43.47151" lon="6.41692">
        <ele>129.8</ele>
        <time>2013-03-13T14:54:45Z</time>
      </trkpt>
      <trkpt lat="43.47143" lon="6.41689">
        <ele>130.6</ele>
        <time>2013-03-13T14:54:52Z</time>
      </trkpt>
      <trkpt lat="43.47135" lon="6.41685">
        <ele>128.6</ele>
        <time>2013-03-13T14:54:59Z</time>
      </trkpt>
      <trkpt lat="43.47127" lon="6.41681">
        <ele>128.3</ele>
        <time>2013-03-13T14:55:07Z</time>
      </trkpt>
      <trkpt lat="43.47119" lon="6.41678">
        <ele>127.7</ele>
        <time>2013-03-13T14:55:16Z</time>
      </trkpt>
      <trkpt lat="43.47111" lon="6.41675">
        <ele>128</ele>
        <time>2013-03-13T14:55:23Z</time>
      </trkpt>
      <trkpt lat="43.4711" lon="6.41675">
        <ele>128</ele>
        <time>2013-03-13T14:55:24Z</time>
      </trkpt>
      <trkpt lat="43.47095" lon="6.41668">
        <ele>125.8</ele>
        <time>2013-03-13T14:55:37Z</time>
      </trkpt>
      <trkpt lat="43.47088" lon="6.41662">
        <ele>125.5</ele>
        <time>2013-03-13T14:55:44Z</time>
      </trkpt>
      <trkpt lat="43.47081" lon="6.41655">
        <ele>125.2</ele>
        <time>2013-03-13T14:55:51Z</time>
      </trkpt>
      <trkpt lat="43.47075" lon="6.41648">
        <ele>124.9</ele>
        <time>2013-03-13T14:55:58Z</time>
      </trkpt>
      <trkpt lat="43.4707" lon="6.4164">
        <ele>125.2</ele>
        <time>2013-03-13T14:56:05Z</time>
      </trkpt>
      <trkpt lat="43.47064" lon="6.4163">
        <ele>124.5</ele>
        <time>2013-03-13T14:56:12Z</time>
      </trkpt>
      <trkpt lat="43.47061" lon="6.41619">
        <ele>123.7</ele>
        <time>2013-03-13T14:56:20Z</time>
      </trkpt>
      <trkpt lat="43.47057" lon="6.41609">
        <ele>122.3</ele>
        <time>2013-03-13T14:56:27Z</time>
      </trkpt>
      <trkpt lat="43.47057" lon="6.41608">
        <ele>121.6</ele>
        <time>2013-03-13T14:56:28Z</time>
      </trkpt>
      <trkpt lat="43.47051" lon="6.41586">
        <ele>121.1</ele>
        <time>2013-03-13T14:56:41Z</time>
      </trkpt>
      <trkpt lat="43.47045" lon="6.41578">
        <ele>121.4</ele>
        <time>2013-03-13T14:56:49Z</time>
      </trkpt>
      <trkpt lat="43.47036" lon="6.41578">
        <ele>119.4</ele>
        <time>2013-03-13T14:56:58Z</time>
      </trkpt>
      <trkpt lat="43.47031" lon="6.41587">
        <ele>118.7</ele>
        <time>2013-03-13T14:57:06Z</time>
      </trkpt>
      <trkpt lat="43.47027" lon="6.41598">
        <ele>118.3</ele>
        <time>2013-03-13T14:57:14Z</time>
      </trkpt>
      <trkpt lat="43.47024" lon="6.41608">
        <ele>118.1</ele>
        <time>2013-03-13T14:57:21Z</time>
      </trkpt>
      <trkpt lat="43.4702" lon="6.41619">
        <ele>116.5</ele>
        <time>2013-03-13T14:57:28Z</time>
      </trkpt>
      <trkpt lat="43.47019" lon="6.41621">
        <ele>117</ele>
        <time>2013-03-13T14:57:29Z</time>
      </trkpt>
      <trkpt lat="43.47011" lon="6.4164">
        <ele>116.6</ele>
        <time>2013-03-13T14:57:42Z</time>
      </trkpt>
      <trkpt lat="43.47007" lon="6.4165">
        <ele>116.5</ele>
        <time>2013-03-13T14:57:49Z</time>
      </trkpt>
      <trkpt lat="43.47004" lon="6.4166">
        <ele>113.4</ele>
        <time>2013-03-13T14:57:56Z</time>
      </trkpt>
      <trkpt lat="43.47002" lon="6.41671">
        <ele>112.4</ele>
        <time>2013-03-13T14:58:03Z</time>
      </trkpt>
      <trkpt lat="43.47001" lon="6.41681">
        <ele>112.3</ele>
        <time>2013-03-13T14:58:10Z</time>
      </trkpt>
      <trkpt lat="43.47001" lon="6.41693">
        <ele>111.2</ele>
        <time>2013-03-13T14:58:17Z</time>
      </trkpt>
      <trkpt lat="43.47002" lon="6.41705">
        <ele>111</ele>
        <time>2013-03-13T14:58:24Z</time>
      </trkpt>
      <trkpt lat="43.47006" lon="6.41716">
        <ele>109.2</ele>
        <time>2013-03-13T14:58:32Z</time>
      </trkpt>
      <trkpt lat="43.47006" lon="6.41716">
        <ele>109.6</ele>
        <time>2013-03-13T14:58:33Z</time>
      </trkpt>
      <trkpt lat="43.4701" lon="6.41738">
        <ele>110.3</ele>
        <time>2013-03-13T14:58:47Z</time>
      </trkpt>
      <trkpt lat="43.47011" lon="6.41749">
        <ele>111.2</ele>
        <time>2013-03-13T14:58:55Z</time>
      </trkpt>
      <trkpt lat="43.47005" lon="6.41757">
        <ele>111</ele>
        <time>2013-03-13T14:59:03Z</time>
      </trkpt>
      <trkpt lat="43.46997" lon="6.41756">
        <ele>110.7</ele>
        <time>2013-03-13T14:59:11Z</time>
      </trkpt>
      <trkpt lat="43.46989" lon="6.41756">
        <ele>112.4</ele>
        <time>2013-03-13T14:59:18Z</time>
      </trkpt>
      <trkpt lat="43.46982" lon="6.41761">
        <ele>112.5</ele>
        <time>2013-03-13T14:59:26Z</time>
      </trkpt>
      <trkpt lat="43.46977" lon="6.4177">
        <ele>113.3</ele>
        <time>2013-03-13T14:59:34Z</time>
      </trkpt>
      <trkpt lat="43.46977" lon="6.41771">
        <ele>113.1</ele>
        <time>2013-03-13T14:59:35Z</time>
      </trkpt>
      <trkpt lat="43.46971" lon="6.41792">
        <ele>113.3</ele>
        <time>2013-03-13T14:59:51Z</time>
      </trkpt>
      <trkpt lat="43.46969" lon="6.41804">
        <ele>113.9</ele>
        <time>2013-03-13T14:59:59Z</time>
      </trkpt>
      <trkpt lat="43.46968" lon="6.41815">
        <ele>115</ele>
        <time>2013-03-13T15:00:07Z</time>
      </trkpt>
      <trkpt lat="43.46966" lon="6.41827">
        <ele>114.2</ele>
        <time>2013-03-13T15:00:15Z</time>
      </trkpt>
      <trkpt lat="43.46964" lon="6.41838">
        <ele>114.3</ele>
        <time>2013-03-13T15:00:22Z</time>
      </trkpt>
      <trkpt lat="43.46961" lon="6.41848">
        <ele>116.1</ele>
        <time>2013-03-13T15:00:29Z</time>
      </trkpt>
      <trkpt lat="43.46957" lon="6.41858">
        <ele>116.3</ele>
        <time>2013-03-13T15:00:36Z</time>
      </trkpt>
      <trkpt lat="43.46956" lon="6.41859">
        <ele>116.1</ele>
        <time>2013-03-13T15:00:37Z</time>
      </trkpt>
      <trkpt lat="43.46946" lon="6.41876">
        <ele>116.1</ele>
        <time>2013-03-13T15:00:51Z</time>
      </trkpt>
      <trkpt lat="43.4694" lon="6.41886">
        <ele>115.9</ele>
        <time>2013-03-13T15:00:59Z</time>
      </trkpt>
      <trkpt lat="43.46934" lon="6.41894">
        <ele>116.2</ele>
        <time>2013-03-13T15:01:07Z</time>
      </trkpt>
      <trkpt lat="43.46928" lon="6.41902">
        <ele>116.1</ele>
        <time>2013-03-13T15:01:15Z</time>
      </trkpt>
      <trkpt lat="43.46922" lon="6.4191">
        <ele>116</ele>
        <time>2013-03-13T15:01:23Z</time>
      </trkpt>
      <trkpt lat="43.46915" lon="6.41919">
        <ele>114.6</ele>
        <time>2013-03-13T15:01:30Z</time>
      </trkpt>
      <trkpt lat="43.4691" lon="6.41927">
        <ele>115.6</ele>
        <time>2013-03-13T15:01:36Z</time>
      </trkpt>
      <trkpt lat="43.46905" lon="6.41937">
        <ele>115.6</ele>
        <time>2013-03-13T15:01:42Z</time>
      </trkpt>
      <trkpt lat="43.46905" lon="6.41939">
        <ele>116</ele>
        <time>2013-03-13T15:01:43Z</time>
      </trkpt>
      <trkpt lat="43.469" lon="6.41959">
        <ele>115.9</ele>
        <time>2013-03-13T15:01:56Z</time>
      </trkpt>
      <trkpt lat="43.46896" lon="6.4197">
        <ele>115.2</ele>
        <time>2013-03-13T15:02:04Z</time>
      </trkpt>
      <trkpt lat="43.46888" lon="6.41975">
        <ele>116.2</ele>
        <time>2013-03-13T15:02:12Z</time>
      </trkpt>
      <trkpt lat="43.46879" lon="6.41977">
        <ele>117.3</ele>
        <time>2013-03-13T15:02:19Z</time>
      </trkpt>
      <trkpt lat="43.46871" lon="6.4198">
        <ele>117.3</ele>
        <time>2013-03-13T15:02:26Z</time>
      </trkpt>
      <trkpt lat="43.46864" lon="6.41986">
        <ele>117.5</ele>
        <time>2013-03-13T15:02:33Z</time>
      </trkpt>
      <trkpt lat="43.46857" lon="6.41991">
        <ele>118.8</ele>
        <time>2013-03-13T15:02:39Z</time>
      </trkpt>
      <trkpt lat="43.4685" lon="6.41998">
        <ele>118.4</ele>
        <time>2013-03-13T15:02:47Z</time>
      </trkpt>
      <trkpt lat="43.4685" lon="6.41999">
        <ele>118.5</ele>
        <time>2013-03-13T15:02:48Z</time>
      </trkpt>
      <trkpt lat="43.46836" lon="6.42012">
        <ele>118.5</ele>
        <time>2013-03-13T15:03:02Z</time>
      </trkpt>
      <trkpt lat="43.46829" lon="6.42019">
        <ele>118.9</ele>
        <time>2013-03-13T15:03:09Z</time>
      </trkpt>
      <trkpt lat="43.46822" lon="6.42025">
        <ele>120.1</ele>
        <time>2013-03-13T15:03:16Z</time>
      </trkpt>
      <trkpt lat="43.46815" lon="6.42032">
        <ele>120.3</ele>
        <time>2013-03-13T15:03:23Z</time>
      </trkpt>
      <trkpt lat="43.46808" lon="6.42039">
        <ele>119.6</ele>
        <time>2013-03-13T15:03:30Z</time>
      </trkpt>
      <trkpt lat="43.46801" lon="6.42046">
        <ele>119.9</ele>
        <time>2013-03-13T15:03:37Z</time>
      </trkpt>
      <trkpt lat="43.46793" lon="6.4205">
        <ele>119.4</ele>
        <time>2013-03-13T15:03:44Z</time>
      </trkpt>
      <trkpt lat="43.46784" lon="6.42053">
        <ele>120</ele>
        <time>2013-03-13T15:03:52Z</time>
      </trkpt>
      <trkpt lat="43.46783" lon="6.42054">
        <ele>119.7</ele>
        <time>2013-03-13T15:03:53Z</time>
      </trkpt>
      <trkpt lat="43.46773" lon="6.42069">
        <ele>120.4</ele>
        <time>2013-03-13T15:04:07Z</time>
      </trkpt>
      <trkpt lat="43.4677" lon="6.42079">
        <ele>122.2</ele>
        <time>2013-03-13T15:04:14Z</time>
      </trkpt>
      <trkpt lat="43.46768" lon="6.4209">
        <ele>121.8</ele>
        <time>2013-03-13T15:04:21Z</time>
      </trkpt>
      <trkpt lat="43.46766" lon="6.42102">
        <ele>122.6</ele>
        <time>2013-03-13T15:04:29Z</time>
      </trkpt>
      <trkpt lat="43.46767" lon="6.42114">
        <ele>122.5</ele>
        <time>2013-03-13T15:04:37Z</time>
      </trkpt>
      <trkpt lat="43.46765" lon="6.42125">
        <ele>123.1</ele>
        <time>2013-03-13T15:04:44Z</time>
      </trkpt>
      <trkpt lat="43.46759" lon="6.42132">
        <ele>122.7</ele>
        <time>2013-03-13T15:04:51Z</time>
      </trkpt>
      <trkpt lat="43.4675" lon="6.42134">
        <ele>122.8</ele>
        <time>2013-03-13T15:05:00Z</time>
      </trkpt>
      <trkpt lat="43.46749" lon="6.42134">
        <ele>122.9</ele>
        <time>2013-03-13T15:05:01Z</time>
      </trkpt>
      <trkpt lat="43.46735" lon="6.42124">
        <ele>124.4</ele>
        <time>2013-03-13T15:05:15Z</time>
      </trkpt>
      <trkpt lat="43.46729" lon="6.42117">
        <ele>124.6</ele>
        <time>2013-03-13T15:05:22Z</time>
      </trkpt>
      <trkpt lat="43.46722" lon="6.4211">
        <ele>124.2</ele>
        <time>2013-03-13T15:05:29Z</time>
      </trkpt>
      <trkpt lat="43.46715" lon="6.42105">
        <ele>124.3</ele>
        <time>2013-03-13T15:05:36Z</time>
      </trkpt>
      <trkpt lat="43.46707" lon="6.42101">
        <ele>125.2</ele>
        <time>2013-03-13T15:05:43Z</time>
      </trkpt>
      <trkpt lat="43.46699" lon="6.42096">
        <ele>124.9</ele>
        <time>2013-03-13T15:05:50Z</time>
      </trkpt>
      <trkpt lat="43.46693" lon="6.42091">
        <ele>124.9</ele>
        <time>2013-03-13T15:05:57Z</time>
      </trkpt>
      <trkpt lat="43.46686" lon="6.42086">
        <ele>125</ele>
        <time>2013-03-13T15:06:04Z</time>
      </trkpt>
      <trkpt lat="43.46685" lon="6.42085">
        <ele>125</ele>
        <time>2013-03-13T15:06:05Z</time>
      </trkpt>
      <trkpt lat="43.4667" lon="6.42076">
        <ele>126.6</ele>
        <time>2013-03-13T15:06:19Z</time>
      </trkpt>
      <trkpt lat="43.46662" lon="6.42074">
        <ele>126.3</ele>
        <time>2013-03-13T15:06:27Z</time>
      </trkpt>
      <trkpt lat="43.46653" lon="6.42071">
        <ele>127.1</ele>
        <time>2013-03-13T15:06:36Z</time>
      </trkpt>
      <trkpt lat="43.46645" lon="6.42069">
        <ele>127.1</ele>
        <time>2013-03-13T15:06:42Z</time>
      </trkpt>
      <trkpt lat="43.46637" lon="6.42068">
        <ele>127.6</ele>
        <time>2013-03-13T15:06:48Z</time>
      </trkpt>
      <trkpt lat="43.46628" lon="6.42068">
        <ele>127.4</ele>
        <time>2013-03-13T15:06:54Z</time>
      </trkpt>
      <trkpt lat="43.46621" lon="6.4207">
        <ele>127.4</ele>
        <time>2013-03-13T15:07:00Z</time>
      </trkpt>
      <trkpt lat="43.46613" lon="6.42075">
        <ele>127.5</ele>
        <time>2013-03-13T15:07:06Z</time>
      </trkpt>
      <trkpt lat="43.46612" lon="6.42076">
        <ele>127.4</ele>
        <time>2013-03-13T15:07:07Z</time>
      </trkpt>
      <trkpt lat="43.46598" lon="6.42086">
        <ele>128.7</ele>
        <time>2013-03-13T15:07:19Z</time>
      </trkpt>
      <trkpt lat="43.46591" lon="6.42091">
        <ele>127.1</ele>
        <time>2013-03-13T15:07:26Z</time>
      </trkpt>
      <trkpt lat="43.46584" lon="6.42097">
        <ele>127.5</ele>
        <time>2013-03-13T15:07:33Z</time>
      </trkpt>
      <trkpt lat="43.46576" lon="6.42103">
        <ele>127.5</ele>
        <time>2013-03-13T15:07:40Z</time>
      </trkpt>
      <trkpt lat="43.4657" lon="6.4211">
        <ele>127.2</ele>
        <time>2013-03-13T15:07:47Z</time>
      </trkpt>
      <trkpt lat="43.46563" lon="6.42117">
        <ele>127.3</ele>
        <time>2013-03-13T15:07:53Z</time>
      </trkpt>
      <trkpt lat="43.46556" lon="6.42123">
        <ele>128.3</ele>
        <time>2013-03-13T15:08:00Z</time>
      </trkpt>
      <trkpt lat="43.4655" lon="6.42131">
        <ele>128.6</ele>
        <time>2013-03-13T15:08:07Z</time>
      </trkpt>
      <trkpt lat="43.46549" lon="6.42132">
        <ele>127.8</ele>
        <time>2013-03-13T15:08:08Z</time>
      </trkpt>
      <trkpt lat="43.46538" lon="6.42147">
        <ele>129.4</ele>
        <time>2013-03-13T15:08:21Z</time>
      </trkpt>
      <trkpt lat="43.46533" lon="6.42157">
        <ele>129.7</ele>
        <time>2013-03-13T15:08:28Z</time>
      </trkpt>
      <trkpt lat="43.46529" lon="6.42166">
        <ele>128.8</ele>
        <time>2013-03-13T15:08:34Z</time>
      </trkpt>
      <trkpt lat="43.46526" lon="6.42176">
        <ele>129.4</ele>
        <time>2013-03-13T15:08:40Z</time>
      </trkpt>
      <trkpt lat="43.46524" lon="6.42188">
        <ele>129.7</ele>
        <time>2013-03-13T15:08:47Z</time>
      </trkpt>
      <trkpt lat="43.46523" lon="6.42199">
        <ele>129</ele>
        <time>2013-03-13T15:08:54Z</time>
      </trkpt>
      <trkpt lat="43.46521" lon="6.42211">
        <ele>129.2</ele>
        <time>2013-03-13T15:09:01Z</time>
      </trkpt>
      <trkpt lat="43.46519" lon="6.42221">
        <ele>129.4</ele>
        <time>2013-03-13T15:09:08Z</time>
      </trkpt>
      <trkpt lat="43.46518" lon="6.42223">
        <ele>129.5</ele>
        <time>2013-03-13T15:09:09Z</time>
      </trkpt>
      <trkpt lat="43.4651" lon="6.42242">
        <ele>130.3</ele>
        <time>2013-03-13T15:09:22Z</time>
      </trkpt>
      <trkpt lat="43.46504" lon="6.4225">
        <ele>130.9</ele>
        <time>2013-03-13T15:09:29Z</time>
      </trkpt>
      <trkpt lat="43.46498" lon="6.42258">
        <ele>130.7</ele>
        <time>2013-03-13T15:09:35Z</time>
      </trkpt>
      <trkpt lat="43.46494" lon="6.42269">
        <ele>132</ele>
        <time>2013-03-13T15:09:42Z</time>
      </trkpt>
      <trkpt lat="43.46495" lon="6.4228">
        <ele>132.3</ele>
        <time>2013-03-13T15:09:49Z</time>
      </trkpt>
      <trkpt lat="43.46499" lon="6.4229">
        <ele>133.1</ele>
        <time>2013-03-13T15:09:56Z</time>
      </trkpt>
      <trkpt lat="43.46505" lon="6.42298">
        <ele>132.1</ele>
        <time>2013-03-13T15:10:03Z</time>
      </trkpt>
      <trkpt lat="43.4651" lon="6.42307">
        <ele>132.2</ele>
        <time>2013-03-13T15:10:10Z</time>
      </trkpt>
      <trkpt lat="43.4651" lon="6.42308">
        <ele>131.6</ele>
        <time>2013-03-13T15:10:11Z</time>
      </trkpt>
      <trkpt lat="43.46517" lon="6.42329">
        <ele>132.2</ele>
        <time>2013-03-13T15:10:26Z</time>
      </trkpt>
      <trkpt lat="43.46519" lon="6.4234">
        <ele>132</ele>
        <time>2013-03-13T15:10:33Z</time>
      </trkpt>
      <trkpt lat="43.46521" lon="6.42352">
        <ele>131.8</ele>
        <time>2013-03-13T15:10:40Z</time>
      </trkpt>
      <trkpt lat="43.46522" lon="6.42363">
        <ele>133.6</ele>
        <time>2013-03-13T15:10:47Z</time>
      </trkpt>
      <trkpt lat="43.46522" lon="6.42375">
        <ele>133.3</ele>
        <time>2013-03-13T15:10:54Z</time>
      </trkpt>
      <trkpt lat="43.46523" lon="6.42385">
        <ele>133.4</ele>
        <time>2013-03-13T15:11:00Z</time>
      </trkpt>
      <trkpt lat="43.46524" lon="6.42396">
        <ele>133.3</ele>
        <time>2013-03-13T15:11:07Z</time>
      </trkpt>
      <trkpt lat="43.46524" lon="6.42408">
        <ele>133.9</ele>
        <time>2013-03-13T15:11:14Z</time>
      </trkpt>
      <trkpt lat="43.46524" lon="6.4241">
        <ele>133.7</ele>
        <time>2013-03-13T15:11:15Z</time>
      </trkpt>
      <trkpt lat="43.46524" lon="6.42433">
        <ele>135.3</ele>
        <time>2013-03-13T15:11:28Z</time>
      </trkpt>
      <trkpt lat="43.46524" lon="6.42444">
        <ele>134.4</ele>
        <time>2013-03-13T15:11:35Z</time>
      </trkpt>
      <trkpt lat="43.46525" lon="6.42456">
        <ele>133.2</ele>
        <time>2013-03-13T15:11:42Z</time>
      </trkpt>
      <trkpt lat="43.46526" lon="6.42468">
        <ele>134.7</ele>
        <time>2013-03-13T15:11:49Z</time>
      </trkpt>
      <trkpt lat="43.46522" lon="6.42478">
        <ele>133.7</ele>
        <time>2013-03-13T15:11:56Z</time>
      </trkpt>
      <trkpt lat="43.46514" lon="6.42473">
        <ele>135.7</ele>
        <time>2013-03-13T15:12:05Z</time>
      </trkpt>
      <trkpt lat="43.4651" lon="6.42462">
        <ele>135.4</ele>
        <time>2013-03-13T15:12:13Z</time>
      </trkpt>
      <trkpt lat="43.46505" lon="6.42452">
        <ele>136.2</ele>
        <time>2013-03-13T15:12:21Z</time>
      </trkpt>
      <trkpt lat="43.46505" lon="6.42451">
        <ele>136.3</ele>
        <time>2013-03-13T15:12:22Z</time>
      </trkpt>
      <trkpt lat="43.46497" lon="6.42433">
        <ele>136.7</ele>
        <time>2013-03-13T15:12:38Z</time>
      </trkpt>
      <trkpt lat="43.46493" lon="6.42423">
        <ele>136.5</ele>
        <time>2013-03-13T15:12:45Z</time>
      </trkpt>
      <trkpt lat="43.46488" lon="6.42413">
        <ele>135.6</ele>
        <time>2013-03-13T15:12:53Z</time>
      </trkpt>
      <trkpt lat="43.46484" lon="6.42404">
        <ele>136.3</ele>
        <time>2013-03-13T15:13:00Z</time>
      </trkpt>
      <trkpt lat="43.46477" lon="6.42396">
        <ele>135.9</ele>
        <time>2013-03-13T15:13:08Z</time>
      </trkpt>
      <trkpt lat="43.46471" lon="6.42389">
        <ele>135.5</ele>
        <time>2013-03-13T15:13:15Z</time>
      </trkpt>
      <trkpt lat="43.46464" lon="6.42383">
        <ele>136.2</ele>
        <time>2013-03-13T15:13:22Z</time>
      </trkpt>
      <trkpt lat="43.46463" lon="6.42383">
        <ele>136.1</ele>
        <time>2013-03-13T15:13:23Z</time>
      </trkpt>
      <trkpt lat="43.46449" lon="6.4237">
        <ele>136.5</ele>
        <time>2013-03-13T15:13:43Z</time>
      </trkpt>
      <trkpt lat="43.46442" lon="6.42364">
        <ele>136.3</ele>
        <time>2013-03-13T15:13:51Z</time>
      </trkpt>
      <trkpt lat="43.46434" lon="6.42358">
        <ele>136.9</ele>
        <time>2013-03-13T15:13:59Z</time>
      </trkpt>
      <trkpt lat="43.46426" lon="6.42354">
        <ele>137</ele>
        <time>2013-03-13T15:14:07Z</time>
      </trkpt>
      <trkpt lat="43.46417" lon="6.42351">
        <ele>138.1</ele>
        <time>2013-03-13T15:14:14Z</time>
      </trkpt>
      <trkpt lat="43.46409" lon="6.4235">
        <ele>138.2</ele>
        <time>2013-03-13T15:14:21Z</time>
      </trkpt>
      <trkpt lat="43.46401" lon="6.42351">
        <ele>138.6</ele>
        <time>2013-03-13T15:14:27Z</time>
      </trkpt>
      <trkpt lat="43.464" lon="6.42351">
        <ele>138.5</ele>
        <time>2013-03-13T15:14:28Z</time>
      </trkpt>
      <trkpt lat="43.46385" lon="6.42357">
        <ele>137.5</ele>
        <time>2013-03-13T15:14:41Z</time>
      </trkpt>
      <trkpt lat="43.46377" lon="6.42361">
        <ele>139.4</ele>
        <time>2013-03-13T15:14:48Z</time>
      </trkpt>
      <trkpt lat="43.4637" lon="6.42366">
        <ele>139.4</ele>
        <time>2013-03-13T15:14:55Z</time>
      </trkpt>
      <trkpt lat="43.46363" lon="6.42371">
        <ele>138.9</ele>
        <time>2013-03-13T15:15:02Z</time>
      </trkpt>
      <trkpt lat="43.46356" lon="6.42376">
        <ele>139.1</ele>
        <time>2013-03-13T15:15:09Z</time>
      </trkpt>
      <trkpt lat="43.46348" lon="6.42382">
        <ele>138.9</ele>
        <time>2013-03-13T15:15:16Z</time>
      </trkpt>
      <trkpt lat="43.46341" lon="6.42389">
        <ele>139.2</ele>
        <time>2013-03-13T15:15:24Z</time>
      </trkpt>
      <trkpt lat="43.46334" lon="6.42396">
        <ele>138.8</ele>
        <time>2013-03-13T15:15:31Z</time>
      </trkpt>
      <trkpt lat="43.46333" lon="6.42397">
        <ele>138.4</ele>
        <time>2013-03-13T15:15:32Z</time>
      </trkpt>
      <trkpt lat="43.46322" lon="6.42411">
        <ele>139.2</ele>
        <time>2013-03-13T15:15:45Z</time>
      </trkpt>
      <trkpt lat="43.46316" lon="6.42419">
        <ele>140.3</ele>
        <time>2013-03-13T15:15:52Z</time>
      </trkpt>
      <trkpt lat="43.46309" lon="6.42427">
        <ele>139</ele>
        <time>2013-03-13T15:16:00Z</time>
      </trkpt>
      <trkpt lat="43.46304" lon="6.42436">
        <ele>139.2</ele>
        <time>2013-03-13T15:16:08Z</time>
      </trkpt>
      <trkpt lat="43.46297" lon="6.42444">
        <ele>140.1</ele>
        <time>2013-03-13T15:16:14Z</time>
      </trkpt>
      <trkpt lat="43.46292" lon="6.42453">
        <ele>140.6</ele>
        <time>2013-03-13T15:16:21Z</time>
      </trkpt>
      <trkpt lat="43.46286" lon="6.42461">
        <ele>139.8</ele>
        <time>2013-03-13T15:16:28Z</time>
      </trkpt>
      <trkpt lat="43.4628" lon="6.4247">
        <ele>139.4</ele>
        <time>2013-03-13T15:16:35Z</time>
      </trkpt>
      <trkpt lat="43.46279" lon="6.42471">
        <ele>139.6</ele>
        <time>2013-03-13T15:16:36Z</time>
      </trkpt>
      <trkpt lat="43.46268" lon="6.42486">
        <ele>140.3</ele>
        <time>2013-03-13T15:16:49Z</time>
      </trkpt>
      <trkpt lat="43.46263" lon="6.42495">
        <ele>141.6</ele>
        <time>2013-03-13T15:16:56Z</time>
      </trkpt>
      <trkpt lat="43.46257" lon="6.42504">
        <ele>141.7</ele>
        <time>2013-03-13T15:17:03Z</time>
      </trkpt>
      <trkpt lat="43.46252" lon="6.42514">
        <ele>141.3</ele>
        <time>2013-03-13T15:17:10Z</time>
      </trkpt>
      <trkpt lat="43.46249" lon="6.42525">
        <ele>140.4</ele>
        <time>2013-03-13T15:17:17Z</time>
      </trkpt>
      <trkpt lat="43.46245" lon="6.42536">
        <ele>141.3</ele>
        <time>2013-03-13T15:17:24Z</time>
      </trkpt>
      <trkpt lat="43.46242" lon="6.42548">
        <ele>142.1</ele>
        <time>2013-03-13T15:17:31Z</time>
      </trkpt>
      <trkpt lat="43.46239" lon="6.42558">
        <ele>142.6</ele>
        <time>2013-03-13T15:17:37Z</time>
      </trkpt>
      <trkpt lat="43.46239" lon="6.4256">
        <ele>142.9</ele>
        <time>2013-03-13T15:17:38Z</time>
      </trkpt>
      <trkpt lat="43.46234" lon="6.42581">
        <ele>142</ele>
        <time>2013-03-13T15:17:51Z</time>
      </trkpt>
      <trkpt lat="43.46232" lon="6.42592">
        <ele>141.1</ele>
        <time>2013-03-13T15:17:58Z</time>
      </trkpt>
      <trkpt lat="43.46231" lon="6.42603">
        <ele>142.3</ele>
        <time>2013-03-13T15:18:05Z</time>
      </trkpt>
      <trkpt lat="43.4623" lon="6.42615">
        <ele>144.1</ele>
        <time>2013-03-13T15:18:12Z</time>
      </trkpt>
      <trkpt lat="43.46229" lon="6.42627">
        <ele>144.3</ele>
        <time>2013-03-13T15:18:20Z</time>
      </trkpt>
      <trkpt lat="43.46227" lon="6.42638">
        <ele>143.1</ele>
        <time>2013-03-13T15:18:27Z</time>
      </trkpt>
      <trkpt lat="43.46223" lon="6.42649">
        <ele>144.5</ele>
        <time>2013-03-13T15:18:35Z</time>
      </trkpt>
      <trkpt lat="43.46222" lon="6.42661">
        <ele>144.5</ele>
        <time>2013-03-13T15:18:43Z</time>
      </trkpt>
      <trkpt lat="43.46222" lon="6.42662">
        <ele>144</ele>
        <time>2013-03-13T15:18:44Z</time>
      </trkpt>
      <trkpt lat="43.46217" lon="6.42683">
        <ele>145</ele>
        <time>2013-03-13T15:18:56Z</time>
      </trkpt>
      <trkpt lat="43.46214" lon="6.42693">
        <ele>144.9</ele>
        <time>2013-03-13T15:19:03Z</time>
      </trkpt>
      <trkpt lat="43.46209" lon="6.42704">
        <ele>145.1</ele>
        <time>2013-03-13T15:19:11Z</time>
      </trkpt>
      <trkpt lat="43.46207" lon="6.42714">
        <ele>147.1</ele>
        <time>2013-03-13T15:19:17Z</time>
      </trkpt>
      <trkpt lat="43.46204" lon="6.42726">
        <ele>145.5</ele>
        <time>2013-03-13T15:19:24Z</time>
      </trkpt>
      <trkpt lat="43.46204" lon="6.42737">
        <ele>145.6</ele>
        <time>2013-03-13T15:19:31Z</time>
      </trkpt>
      <trkpt lat="43.46206" lon="6.42748">
        <ele>146.3</ele>
        <time>2013-03-13T15:19:37Z</time>
      </trkpt>
      <trkpt lat="43.46207" lon="6.4276">
        <ele>146</ele>
        <time>2013-03-13T15:19:43Z</time>
      </trkpt>
      <trkpt lat="43.46205" lon="6.42772">
        <ele>146</ele>
        <time>2013-03-13T15:19:50Z</time>
      </trkpt>
      <trkpt lat="43.46204" lon="6.42774">
        <ele>146</ele>
        <time>2013-03-13T15:19:51Z</time>
      </trkpt>
      <trkpt lat="43.46199" lon="6.42792">
        <ele>146.1</ele>
        <time>2013-03-13T15:20:02Z</time>
      </trkpt>
      <trkpt lat="43.46199" lon="6.42803">
        <ele>147</ele>
        <time>2013-03-13T15:20:08Z</time>
      </trkpt>
      <trkpt lat="43.46198" lon="6.42814">
        <ele>146.6</ele>
        <time>2013-03-13T15:20:14Z</time>
      </trkpt>
      <trkpt lat="43.46195" lon="6.42825">
        <ele>147.9</ele>
        <time>2013-03-13T15:20:21Z</time>
      </trkpt>
      <trkpt lat="43.46192" lon="6.42835">
        <ele>147.3</ele>
        <time>2013-03-13T15:20:27Z</time>
      </trkpt>
      <trkpt lat="43.46189" lon="6.42845">
        <ele>147.6</ele>
        <time>2013-03-13T15:20:34Z</time>
      </trkpt>
      <trkpt lat="43.46185" lon="6.42856">
        <ele>147.9</ele>
        <time>2013-03-13T15:20:41Z</time>
      </trkpt>
      <trkpt lat="43.46181" lon="6.42867">
        <ele>149</ele>
        <time>2013-03-13T15:20:48Z</time>
      </trkpt>
      <trkpt lat="43.46177" lon="6.42876">
        <ele>150.5</ele>
        <time>2013-03-13T15:20:55Z</time>
      </trkpt>
      <trkpt lat="43.46176" lon="6.42878">
        <ele>150.5</ele>
        <time>2013-03-13T15:20:56Z</time>
      </trkpt>
      <trkpt lat="43.46162" lon="6.42889">
        <ele>149.7</ele>
        <time>2013-03-13T15:21:24Z</time>
      </trkpt>
      <trkpt lat="43.4617" lon="6.42885">
        <ele>148.9</ele>
        <time>2013-03-13T15:28:49Z</time>
      </trkpt>
      <trkpt lat="43.4617" lon="6.42885">
        <ele>149</ele>
        <time>2013-03-13T15:28:50Z</time>
      </trkpt>
      <trkpt lat="43.46156" lon="6.42875">
        <ele>152</ele>
        <time>2013-03-13T15:29:51Z</time>
      </trkpt>
      <trkpt lat="43.46155" lon="6.42875">
        <ele>152.2</ele>
        <time>2013-03-13T15:29:52Z</time>
      </trkpt>
      <trkpt lat="43.46146" lon="6.42895">
        <ele>155.8</ele>
        <time>2013-03-13T15:31:27Z</time>
      </trkpt>
      <trkpt lat="43.46146" lon="6.42895">
        <ele>155.9</ele>
        <time>2013-03-13T15:31:28Z</time>
      </trkpt>
      <trkpt lat="43.46139" lon="6.42903">
        <ele>158.5</ele>
        <time>2013-03-13T15:32:35Z</time>
      </trkpt>
      <trkpt lat="43.46122" lon="6.42907">
        <ele>168.3</ele>
        <time>2013-03-13T15:33:30Z</time>
      </trkpt>
      <trkpt lat="43.46114" lon="6.42905">
        <ele>171</ele>
        <time>2013-03-13T15:33:44Z</time>
      </trkpt>
      <trkpt lat="43.46114" lon="6.42905">
        <ele>171.7</ele>
        <time>2013-03-13T15:33:45Z</time>
      </trkpt>
      <trkpt lat="43.46098" lon="6.42898">
        <ele>176.3</ele>
        <time>2013-03-13T15:34:16Z</time>
      </trkpt>
      <trkpt lat="43.4609" lon="6.42893">
        <ele>179.7</ele>
        <time>2013-03-13T15:34:34Z</time>
      </trkpt>
      <trkpt lat="43.46082" lon="6.42887">
        <ele>181.6</ele>
        <time>2013-03-13T15:34:53Z</time>
      </trkpt>
      <trkpt lat="43.46082" lon="6.42888">
        <ele>182.2</ele>
        <time>2013-03-13T15:34:54Z</time>
      </trkpt>
      <trkpt lat="43.46067" lon="6.42894">
        <ele>185.9</ele>
        <time>2013-03-13T15:35:26Z</time>
      </trkpt>
      <trkpt lat="43.4606" lon="6.429">
        <ele>187.9</ele>
        <time>2013-03-13T15:35:46Z</time>
      </trkpt>
      <trkpt lat="43.46054" lon="6.42909">
        <ele>190.1</ele>
        <time>2013-03-13T15:36:02Z</time>
      </trkpt>
      <trkpt lat="43.46054" lon="6.42909">
        <ele>190.1</ele>
        <time>2013-03-13T15:36:03Z</time>
      </trkpt>
      <trkpt lat="43.46041" lon="6.4292">
        <ele>192.6</ele>
        <time>2013-03-13T15:36:39Z</time>
      </trkpt>
      <trkpt lat="43.46032" lon="6.4292">
        <ele>196.3</ele>
        <time>2013-03-13T15:36:56Z</time>
      </trkpt>
      <trkpt lat="43.46023" lon="6.4292">
        <ele>199.1</ele>
        <time>2013-03-13T15:37:22Z</time>
      </trkpt>
      <trkpt lat="43.46022" lon="6.4292">
        <ele>198.4</ele>
        <time>2013-03-13T15:37:23Z</time>
      </trkpt>
      <trkpt lat="43.46008" lon="6.42923">
        <ele>203.7</ele>
        <time>2013-03-13T15:37:51Z</time>
      </trkpt>
      <trkpt lat="43.46007" lon="6.42934">
        <ele>203.4</ele>
        <time>2013-03-13T15:38:05Z</time>
      </trkpt>
      <trkpt lat="43.46006" lon="6.42945">
        <ele>203.1</ele>
        <time>2013-03-13T15:38:14Z</time>
      </trkpt>
      <trkpt lat="43.46004" lon="6.42957">
        <ele>203.6</ele>
        <time>2013-03-13T15:38:26Z</time>
      </trkpt>
      <trkpt lat="43.46004" lon="6.42958">
        <ele>203.8</ele>
        <time>2013-03-13T15:38:27Z</time>
      </trkpt>
      <trkpt lat="43.46004" lon="6.42981">
        <ele>204.2</ele>
        <time>2013-03-13T15:38:48Z</time>
      </trkpt>
      <trkpt lat="43.46002" lon="6.42993">
        <ele>206.1</ele>
        <time>2013-03-13T15:38:57Z</time>
      </trkpt>
      <trkpt lat="43.46003" lon="6.43004">
        <ele>206</ele>
        <time>2013-03-13T15:39:05Z</time>
      </trkpt>
      <trkpt lat="43.46003" lon="6.43016">
        <ele>206.9</ele>
        <time>2013-03-13T15:39:15Z</time>
      </trkpt>
      <trkpt lat="43.45999" lon="6.43028">
        <ele>207.5</ele>
        <time>2013-03-13T15:39:27Z</time>
      </trkpt>
      <trkpt lat="43.45999" lon="6.43028">
        <ele>207.6</ele>
        <time>2013-03-13T15:39:28Z</time>
      </trkpt>
      <trkpt lat="43.45992" lon="6.43049">
        <ele>207.2</ele>
        <time>2013-03-13T15:39:43Z</time>
      </trkpt>
      <trkpt lat="43.45989" lon="6.43061">
        <ele>206.9</ele>
        <time>2013-03-13T15:39:52Z</time>
      </trkpt>
      <trkpt lat="43.45986" lon="6.43072">
        <ele>208.2</ele>
        <time>2013-03-13T15:40:01Z</time>
      </trkpt>
      <trkpt lat="43.45984" lon="6.43084">
        <ele>208.4</ele>
        <time>2013-03-13T15:40:08Z</time>
      </trkpt>
      <trkpt lat="43.45984" lon="6.43097">
        <ele>208.7</ele>
        <time>2013-03-13T15:40:17Z</time>
      </trkpt>
      <trkpt lat="43.45984" lon="6.43108">
        <ele>209.4</ele>
        <time>2013-03-13T15:40:26Z</time>
      </trkpt>
      <trkpt lat="43.45983" lon="6.4312">
        <ele>210.9</ele>
        <time>2013-03-13T15:40:36Z</time>
      </trkpt>
      <trkpt lat="43.45983" lon="6.43121">
        <ele>210.9</ele>
        <time>2013-03-13T15:40:37Z</time>
      </trkpt>
    </trkseg>
  </trk>
</gpx>